TUI67J EDDL-GVBA
Flight info
| Callsign | TUI67J |
|---|---|
| Flight time | 6h 19m |
| Altitude | 35000 |
| Route | NETEX1K NETEX DCT RASCA DCT FAMEN DCT ESTOC UT300 PON UN872 ERIGA UN741 AZFIC DCT LOTEE DCT AGADO DCT IXUVA DCT IBIDO DCT VERAM DCT ROLAR DCT EKNOT DCT ORTIS DCT OLOPO DCT LIMAL/N0448F340 N873 IPERA/M079F340 DCT DIMKI DIMKI1P |
| Aircraft | B38M/M-SADE2E3FGHIJ1RWXYZ/LB1 |
Departure
| Time | 2026-04-14 11:00 |
|---|---|
| Airport | Düsseldorf Airport (EDDL) |
Arrival
| Time | 2026-04-14 17:20 |
|---|---|
| Airport | Aristides Pereira International Airport (GVBA) |
| Time | Latitude | Longitude | Altitude | Speed | Heading |
|---|---|---|---|---|---|
| 2026-04-14 10:25 | 51.27626 | 6.76373 | 133 ft | 0 kts | 340° |
| 2026-04-14 10:35 | 51.27625 | 6.76373 | 133 ft | 0 kts | 340° |
| 2026-04-14 10:49 | 51.27618 | 6.76377 | 133 ft | 4 kts | 341° |
| 2026-04-14 10:50 | 51.27592 | 6.76391 | 133 ft | 4 kts | 338° |
| 2026-04-14 10:50 | 51.27571 | 6.76412 | 133 ft | 4 kts | 301° |
| 2026-04-14 10:50 | 51.27568 | 6.76427 | 133 ft | 0 kts | 267° |
| 2026-04-14 10:50 | 51.27561 | 6.76397 | 133 ft | 4 kts | 243° |
| 2026-04-14 10:51 | 51.27553 | 6.76365 | 133 ft | 1 kts | 249° |
| 2026-04-14 10:54 | 51.27552 | 6.76365 | 133 ft | 0 kts | 249° |
| 2026-04-14 10:54 | 51.27548 | 6.76348 | 133 ft | 3 kts | 248° |
| 2026-04-14 10:54 | 51.27535 | 6.76296 | 133 ft | 7 kts | 248° |
| 2026-04-14 10:55 | 51.27514 | 6.76194 | 133 ft | 12 kts | 262° |
| 2026-04-14 10:55 | 51.27570 | 6.76083 | 133 ft | 16 kts | 332° |
| 2026-04-14 10:55 | 51.27694 | 6.76040 | 133 ft | 20 kts | 0° |
| 2026-04-14 10:55 | 51.27837 | 6.76045 | 133 ft | 21 kts | 1° |
| 2026-04-14 10:56 | 51.27987 | 6.76047 | 132 ft | 22 kts | 0° |
| 2026-04-14 10:56 | 51.28084 | 6.76037 | 132 ft | 11 kts | 337° |
| 2026-04-14 10:56 | 51.28151 | 6.76064 | 132 ft | 12 kts | 51° |
| 2026-04-14 10:56 | 51.28209 | 6.76187 | 126 ft | 17 kts | 53° |
| 2026-04-14 10:57 | 51.28295 | 6.76368 | 128 ft | 24 kts | 52° |
| 2026-04-14 10:57 | 51.28413 | 6.76614 | 128 ft | 32 kts | 52° |
| 2026-04-14 10:57 | 51.28554 | 6.76912 | 129 ft | 34 kts | 53° |
| 2026-04-14 10:57 | 51.28697 | 6.77212 | 132 ft | 34 kts | 53° |
| 2026-04-14 10:58 | 51.28840 | 6.77512 | 132 ft | 34 kts | 52° |
| 2026-04-14 10:58 | 51.28982 | 6.77811 | 132 ft | 34 kts | 52° |
| 2026-04-14 10:58 | 51.29123 | 6.78106 | 136 ft | 33 kts | 53° |
| 2026-04-14 10:58 | 51.29253 | 6.78378 | 146 ft | 29 kts | 53° |
| 2026-04-14 10:59 | 51.29356 | 6.78558 | 154 ft | 16 kts | 21° |
| 2026-04-14 10:59 | 51.29468 | 6.78564 | 155 ft | 17 kts | 354° |
| 2026-04-14 10:59 | 51.29507 | 6.78445 | 153 ft | 17 kts | 233° |
| 2026-04-14 10:59 | 51.29426 | 6.78274 | 149 ft | 26 kts | 233° |
| 2026-04-14 11:00 | 51.29157 | 6.77712 | 137 ft | 101 kts | 232° |
| 2026-04-14 11:00 | 51.28597 | 6.76535 | 133 ft | 162 kts | 232° |
| 2026-04-14 11:00 | 51.27863 | 6.74974 | 514 ft | 182 kts | 233° |
| 2026-04-14 11:00 | 51.27069 | 6.73317 | 1236 ft | 189 kts | 233° |
| 2026-04-14 11:01 | 51.26272 | 6.71605 | 1926 ft | 202 kts | 234° |
| 2026-04-14 11:01 | 51.25406 | 6.69729 | 2551 ft | 210 kts | 234° |
| 2026-04-14 11:01 | 51.24541 | 6.67857 | 3436 ft | 212 kts | 234° |
| 2026-04-14 11:01 | 51.23820 | 6.65720 | 3897 ft | 231 kts | 258° |
| 2026-04-14 11:02 | 51.23961 | 6.63152 | 4503 ft | 240 kts | 292° |
| 2026-04-14 11:02 | 51.24977 | 6.60968 | 5065 ft | 257 kts | 318° |
| 2026-04-14 11:02 | 51.26380 | 6.59207 | 5858 ft | 260 kts | 320° |
| 2026-04-14 11:02 | 51.27813 | 6.57392 | 6683 ft | 266 kts | 320° |
| 2026-04-14 11:03 | 51.29264 | 6.55548 | 7521 ft | 268 kts | 319° |
| 2026-04-14 11:03 | 51.30734 | 6.53669 | 8311 ft | 272 kts | 319° |
| 2026-04-14 11:03 | 51.32223 | 6.51763 | 9112 ft | 276 kts | 319° |
| 2026-04-14 11:03 | 51.33727 | 6.49833 | 9890 ft | 279 kts | 319° |
| 2026-04-14 11:04 | 51.35254 | 6.47871 | 10614 ft | 283 kts | 319° |
| 2026-04-14 11:04 | 51.36795 | 6.45890 | 11331 ft | 285 kts | 320° |
| 2026-04-14 11:04 | 51.38269 | 6.43751 | 12066 ft | 287 kts | 308° |
| 2026-04-14 11:04 | 51.39227 | 6.40961 | 12775 ft | 289 kts | 285° |
| 2026-04-14 11:05 | 51.39371 | 6.37739 | 13429 ft | 295 kts | 261° |
| 2026-04-14 11:05 | 51.38676 | 6.34627 | 14072 ft | 303 kts | 238° |
| 2026-04-14 11:05 | 51.37258 | 6.32175 | 14680 ft | 309 kts | 216° |
| 2026-04-14 11:05 | 51.35459 | 6.30241 | 15278 ft | 313 kts | 217° |
| 2026-04-14 11:06 | 51.33668 | 6.28160 | 15959 ft | 315 kts | 217° |
| 2026-04-14 11:06 | 51.31913 | 6.26054 | 16347 ft | 327 kts | 219° |
| 2026-04-14 11:06 | 51.30049 | 6.23773 | 16473 ft | 347 kts | 218° |
| 2026-04-14 11:06 | 51.28086 | 6.21384 | 16708 ft | 362 kts | 218° |
| 2026-04-14 11:07 | 51.26059 | 6.18927 | 17225 ft | 366 kts | 219° |
| 2026-04-14 11:07 | 51.24024 | 6.16468 | 17906 ft | 368 kts | 219° |
| 2026-04-14 11:07 | 51.21969 | 6.13986 | 18475 ft | 371 kts | 219° |
| 2026-04-14 11:07 | 51.19903 | 6.11494 | 19000 ft | 374 kts | 219° |
| 2026-04-14 11:08 | 51.17822 | 6.08988 | 19491 ft | 377 kts | 218° |
| 2026-04-14 11:08 | 51.15720 | 6.06459 | 19960 ft | 381 kts | 219° |
| 2026-04-14 11:08 | 51.13595 | 6.03904 | 20423 ft | 384 kts | 219° |
| 2026-04-14 11:08 | 51.11451 | 6.01331 | 20918 ft | 387 kts | 219° |
| 2026-04-14 11:09 | 51.09292 | 5.98742 | 21397 ft | 390 kts | 219° |
| 2026-04-14 11:09 | 51.07116 | 5.96136 | 21866 ft | 393 kts | 219° |
| 2026-04-14 11:09 | 51.04932 | 5.93524 | 22325 ft | 395 kts | 219° |
| 2026-04-14 11:10 | 51.00495 | 5.88226 | 23258 ft | 401 kts | 219° |
| 2026-04-14 11:10 | 50.98266 | 5.85570 | 23705 ft | 404 kts | 219° |
| 2026-04-14 11:10 | 50.96008 | 5.82882 | 24083 ft | 407 kts | 219° |
| 2026-04-14 11:10 | 50.93739 | 5.80186 | 24440 ft | 410 kts | 219° |
| 2026-04-14 11:11 | 50.91450 | 5.77468 | 24794 ft | 412 kts | 219° |
| 2026-04-14 11:11 | 50.89145 | 5.74735 | 25141 ft | 415 kts | 219° |
| 2026-04-14 11:11 | 50.86826 | 5.71984 | 25485 ft | 418 kts | 219° |
| 2026-04-14 11:11 | 50.84524 | 5.69259 | 25818 ft | 420 kts | 219° |
| 2026-04-14 11:12 | 50.82173 | 5.66481 | 26161 ft | 423 kts | 219° |
| 2026-04-14 11:12 | 50.79808 | 5.63691 | 26483 ft | 426 kts | 220° |
| 2026-04-14 11:12 | 50.77424 | 5.60881 | 26777 ft | 429 kts | 220° |
| 2026-04-14 11:12 | 50.75019 | 5.58052 | 27023 ft | 433 kts | 220° |
| 2026-04-14 11:13 | 50.72593 | 5.55201 | 27357 ft | 435 kts | 220° |
| 2026-04-14 11:13 | 50.70149 | 5.52333 | 27615 ft | 439 kts | 220° |
| 2026-04-14 11:13 | 50.67690 | 5.49451 | 27956 ft | 441 kts | 220° |
| 2026-04-14 11:13 | 50.65218 | 5.46558 | 28255 ft | 444 kts | 220° |
| 2026-04-14 11:14 | 50.62733 | 5.43654 | 28550 ft | 446 kts | 220° |
| 2026-04-14 11:14 | 50.60235 | 5.40738 | 28843 ft | 448 kts | 220° |
| 2026-04-14 11:14 | 50.57721 | 5.37808 | 29123 ft | 451 kts | 220° |
| 2026-04-14 11:14 | 50.55192 | 5.34863 | 29396 ft | 453 kts | 220° |
| 2026-04-14 11:15 | 50.52674 | 5.31936 | 29683 ft | 456 kts | 220° |
| 2026-04-14 11:15 | 50.50084 | 5.28929 | 29921 ft | 459 kts | 220° |
| 2026-04-14 11:15 | 50.47510 | 5.25946 | 30193 ft | 461 kts | 220° |
| 2026-04-14 11:15 | 50.44955 | 5.22988 | 30430 ft | 463 kts | 220° |
| 2026-04-14 11:16 | 50.42357 | 5.19985 | 30674 ft | 465 kts | 220° |
| 2026-04-14 11:16 | 50.39749 | 5.16973 | 30928 ft | 466 kts | 220° |
| 2026-04-14 11:16 | 50.37130 | 5.13954 | 31162 ft | 468 kts | 220° |
| 2026-04-14 11:16 | 50.34509 | 5.10937 | 31398 ft | 469 kts | 220° |
| 2026-04-14 11:17 | 50.31872 | 5.07905 | 31630 ft | 470 kts | 220° |
| 2026-04-14 11:17 | 50.29232 | 5.04873 | 31818 ft | 473 kts | 221° |
| 2026-04-14 11:17 | 50.26566 | 5.01818 | 31972 ft | 476 kts | 221° |
| 2026-04-14 11:17 | 50.23896 | 4.98760 | 32258 ft | 476 kts | 221° |
| 2026-04-14 11:18 | 50.21231 | 4.95711 | 32573 ft | 475 kts | 221° |
| 2026-04-14 11:18 | 50.18564 | 4.92665 | 32924 ft | 473 kts | 221° |
| 2026-04-14 11:18 | 50.15910 | 4.89633 | 33241 ft | 472 kts | 222° |
| 2026-04-14 11:18 | 50.13562 | 4.86159 | 33561 ft | 459 kts | 236° |
| 2026-04-14 11:19 | 50.11513 | 4.82350 | 33866 ft | 460 kts | 234° |
| 2026-04-14 11:19 | 50.09428 | 4.78566 | 34115 ft | 459 kts | 235° |
| 2026-04-14 11:19 | 50.07359 | 4.74775 | 34349 ft | 459 kts | 235° |
| 2026-04-14 11:19 | 50.05294 | 4.70979 | 34547 ft | 460 kts | 235° |
| 2026-04-14 11:20 | 50.03230 | 4.67182 | 34751 ft | 460 kts | 234° |
| 2026-04-14 11:20 | 50.01167 | 4.63392 | 34960 ft | 459 kts | 234° |
| 2026-04-14 11:20 | 49.99101 | 4.59601 | 35150 ft | 460 kts | 234° |
| 2026-04-14 11:20 | 49.97155 | 4.55769 | 35167 ft | 455 kts | 243° |
| 2026-04-14 11:21 | 49.94020 | 4.47338 | 35202 ft | 451 kts | 245° |
| 2026-04-14 11:21 | 49.90856 | 4.38923 | 35202 ft | 450 kts | 245° |
| 2026-04-14 11:22 | 49.87694 | 4.30521 | 35195 ft | 451 kts | 245° |
| 2026-04-14 11:22 | 49.84522 | 4.22120 | 35203 ft | 452 kts | 245° |
| 2026-04-14 11:23 | 49.81360 | 4.13774 | 35203 ft | 451 kts | 245° |
| 2026-04-14 11:23 | 49.78178 | 4.05399 | 35201 ft | 451 kts | 245° |
| 2026-04-14 11:24 | 49.74985 | 3.97024 | 35207 ft | 452 kts | 245° |
| 2026-04-14 11:24 | 49.71790 | 3.88671 | 35209 ft | 452 kts | 245° |
| 2026-04-14 11:25 | 49.68584 | 3.80315 | 35206 ft | 452 kts | 245° |
| 2026-04-14 11:25 | 49.65370 | 3.71963 | 35207 ft | 454 kts | 245° |
| 2026-04-14 11:26 | 49.62138 | 3.63594 | 35212 ft | 454 kts | 245° |
| 2026-04-14 11:26 | 49.58903 | 3.55241 | 35195 ft | 453 kts | 245° |
| 2026-04-14 11:27 | 49.55667 | 3.46915 | 35200 ft | 453 kts | 245° |
| 2026-04-14 11:27 | 49.52423 | 3.38594 | 35203 ft | 453 kts | 245° |
| 2026-04-14 11:28 | 49.49178 | 3.30297 | 35218 ft | 453 kts | 245° |
| 2026-04-14 11:28 | 49.45941 | 3.22044 | 35209 ft | 453 kts | 245° |
| 2026-04-14 11:29 | 49.42668 | 3.13726 | 35203 ft | 454 kts | 245° |
| 2026-04-14 11:29 | 49.39925 | 3.06776 | 35205 ft | 454 kts | 245° |
| 2026-04-14 11:30 | 49.36666 | 2.98542 | 35202 ft | 454 kts | 245° |
| 2026-04-14 11:30 | 49.33378 | 2.90262 | 35204 ft | 454 kts | 245° |
| 2026-04-14 11:31 | 49.30085 | 2.81995 | 35204 ft | 454 kts | 245° |
| 2026-04-14 11:31 | 49.26780 | 2.73723 | 35192 ft | 455 kts | 245° |
| 2026-04-14 11:32 | 49.23468 | 2.65459 | 35180 ft | 456 kts | 245° |
| 2026-04-14 11:32 | 49.20142 | 2.57183 | 35208 ft | 457 kts | 245° |
| 2026-04-14 11:33 | 49.16804 | 2.48899 | 35207 ft | 457 kts | 245° |
| 2026-04-14 11:34 | 49.12819 | 2.36067 | 35208 ft | 432 kts | 269° |
| 2026-04-14 11:34 | 49.11894 | 2.26954 | 35177 ft | 435 kts | 268° |
| 2026-04-14 11:35 | 49.10998 | 2.17885 | 35161 ft | 434 kts | 269° |
| 2026-04-14 11:35 | 49.10106 | 2.08776 | 35181 ft | 433 kts | 269° |
| 2026-04-14 11:36 | 49.08413 | 1.99848 | 35211 ft | 448 kts | 253° |
| 2026-04-14 11:36 | 49.05856 | 1.91135 | 35157 ft | 450 kts | 253° |
| 2026-04-14 11:37 | 49.03243 | 1.82419 | 35188 ft | 453 kts | 253° |
| 2026-04-14 11:37 | 49.00627 | 1.73765 | 35171 ft | 453 kts | 254° |
| 2026-04-14 11:38 | 48.97981 | 1.65049 | 35191 ft | 453 kts | 253° |
| 2026-04-14 11:38 | 48.95333 | 1.56353 | 35179 ft | 453 kts | 253° |
| 2026-04-14 11:39 | 48.92677 | 1.47664 | 35178 ft | 453 kts | 253° |
| 2026-04-14 11:39 | 48.90014 | 1.38986 | 35179 ft | 453 kts | 253° |
| 2026-04-14 11:40 | 48.87341 | 1.30301 | 35150 ft | 453 kts | 254° |
| 2026-04-14 11:40 | 48.84665 | 1.21637 | 35171 ft | 453 kts | 254° |
| 2026-04-14 11:41 | 48.81980 | 1.12978 | 35177 ft | 453 kts | 253° |
| 2026-04-14 11:41 | 48.79306 | 1.04381 | 35173 ft | 453 kts | 253° |
| 2026-04-14 11:42 | 48.76609 | 0.95739 | 35171 ft | 453 kts | 253° |
| 2026-04-14 11:42 | 48.73745 | 0.87176 | 35165 ft | 460 kts | 248° |
| 2026-04-14 11:43 | 48.70417 | 0.78881 | 35176 ft | 462 kts | 247° |
| 2026-04-14 11:43 | 48.67059 | 0.70592 | 35168 ft | 462 kts | 247° |
| 2026-04-14 11:44 | 48.63691 | 0.62308 | 35154 ft | 463 kts | 247° |
| 2026-04-14 11:44 | 48.60325 | 0.54054 | 35169 ft | 464 kts | 247° |
| 2026-04-14 11:45 | 48.56933 | 0.45761 | 35172 ft | 464 kts | 247° |
| 2026-04-14 11:45 | 48.53537 | 0.37486 | 35169 ft | 462 kts | 247° |
| 2026-04-14 11:46 | 48.50144 | 0.29243 | 35172 ft | 462 kts | 247° |
| 2026-04-14 11:46 | 48.46748 | 0.21016 | 35175 ft | 462 kts | 246° |
| 2026-04-14 11:47 | 48.43345 | 0.12801 | 35159 ft | 462 kts | 246° |
| 2026-04-14 11:47 | 48.39925 | 0.04567 | 35172 ft | 464 kts | 246° |
| 2026-04-14 11:48 | 48.36487 | -0.03637 | 35160 ft | 465 kts | 243° |
| 2026-04-14 11:48 | 48.32623 | -0.11442 | 35174 ft | 464 kts | 242° |
| 2026-04-14 11:49 | 48.28820 | -0.19209 | 35172 ft | 464 kts | 242° |
| 2026-04-14 11:49 | 48.24952 | -0.26984 | 35170 ft | 466 kts | 241° |
| 2026-04-14 11:50 | 48.21012 | -0.34694 | 35156 ft | 466 kts | 241° |
| 2026-04-14 11:50 | 48.17062 | -0.42423 | 35166 ft | 467 kts | 241° |
| 2026-04-14 11:51 | 48.11122 | -0.54005 | 35160 ft | 467 kts | 240° |
| 2026-04-14 11:51 | 48.07157 | -0.61708 | 35154 ft | 467 kts | 240° |
| 2026-04-14 11:52 | 48.03183 | -0.69408 | 35154 ft | 467 kts | 240° |
| 2026-04-14 11:52 | 47.99208 | -0.77088 | 35155 ft | 468 kts | 240° |
| 2026-04-14 11:53 | 47.95214 | -0.84782 | 35128 ft | 469 kts | 240° |
| 2026-04-14 11:53 | 47.91236 | -0.92425 | 35157 ft | 464 kts | 240° |
| 2026-04-14 11:54 | 47.87271 | -1.00020 | 35165 ft | 464 kts | 240° |
| 2026-04-14 11:54 | 47.83324 | -1.07562 | 35151 ft | 464 kts | 240° |
| 2026-04-14 11:55 | 47.79355 | -1.15124 | 35146 ft | 464 kts | 240° |
| 2026-04-14 11:55 | 47.75362 | -1.22710 | 35154 ft | 466 kts | 240° |
| 2026-04-14 11:56 | 47.71367 | -1.30278 | 35141 ft | 463 kts | 239° |
| 2026-04-14 11:56 | 47.67394 | -1.37785 | 35140 ft | 462 kts | 239° |
| 2026-04-14 11:57 | 47.63419 | -1.45277 | 35150 ft | 462 kts | 239° |
| 2026-04-14 11:57 | 47.59351 | -1.52683 | 35139 ft | 466 kts | 235° |
| 2026-04-14 11:58 | 47.55010 | -1.59775 | 35122 ft | 468 kts | 236° |
| 2026-04-14 11:58 | 47.50664 | -1.66956 | 35113 ft | 468 kts | 236° |
| 2026-04-14 11:59 | 47.46337 | -1.74097 | 35136 ft | 464 kts | 236° |
| 2026-04-14 11:59 | 47.42026 | -1.81195 | 35144 ft | 464 kts | 236° |
| 2026-04-14 12:00 | 47.37709 | -1.88285 | 35147 ft | 464 kts | 236° |
| 2026-04-14 12:00 | 47.32825 | -1.94654 | 35162 ft | 481 kts | 217° |
| 2026-04-14 12:01 | 47.27108 | -1.99838 | 35136 ft | 483 kts | 218° |
| 2026-04-14 12:01 | 47.21365 | -2.04992 | 35153 ft | 484 kts | 218° |
| 2026-04-14 12:02 | 47.15619 | -2.10115 | 35133 ft | 481 kts | 218° |
| 2026-04-14 12:02 | 47.09881 | -2.15216 | 35131 ft | 483 kts | 218° |
| 2026-04-14 12:03 | 47.04168 | -2.20281 | 35129 ft | 483 kts | 218° |
| 2026-04-14 12:03 | 46.98420 | -2.25365 | 35132 ft | 483 kts | 218° |
| 2026-04-14 12:04 | 46.92667 | -2.30441 | 35128 ft | 483 kts | 217° |
| 2026-04-14 12:04 | 46.87090 | -2.35795 | 35107 ft | 470 kts | 231° |
| 2026-04-14 12:05 | 46.85051 | -2.39397 | 35131 ft | 453 kts | 245° |
| 2026-04-14 12:05 | 46.83388 | -2.43308 | 35128 ft | 455 kts | 246° |
| 2026-04-14 12:05 | 46.80166 | -2.51185 | 35134 ft | 449 kts | 247° |
| 2026-04-14 12:06 | 46.77036 | -2.59042 | 35131 ft | 448 kts | 248° |
| 2026-04-14 12:06 | 46.73913 | -2.66909 | 35132 ft | 448 kts | 248° |
| 2026-04-14 12:07 | 46.70788 | -2.74766 | 35130 ft | 448 kts | 248° |
| 2026-04-14 12:07 | 46.67659 | -2.82612 | 35127 ft | 448 kts | 248° |
| 2026-04-14 12:08 | 46.64533 | -2.90425 | 35122 ft | 443 kts | 247° |
| 2026-04-14 12:08 | 46.61428 | -2.98165 | 35130 ft | 443 kts | 247° |
| 2026-04-14 12:09 | 46.58313 | -3.05910 | 35130 ft | 443 kts | 247° |
| 2026-04-14 12:09 | 46.54475 | -3.12982 | 35150 ft | 456 kts | 234° |
| 2026-04-14 12:10 | 46.50095 | -3.19687 | 35110 ft | 458 kts | 233° |
| 2026-04-14 12:10 | 46.45664 | -3.26366 | 35121 ft | 458 kts | 233° |
| 2026-04-14 12:11 | 46.41249 | -3.32991 | 35124 ft | 456 kts | 233° |
| 2026-04-14 12:11 | 46.36836 | -3.39598 | 35122 ft | 456 kts | 233° |
| 2026-04-14 12:12 | 46.32416 | -3.46196 | 35124 ft | 456 kts | 233° |
| 2026-04-14 12:12 | 46.27983 | -3.52800 | 35123 ft | 458 kts | 233° |
| 2026-04-14 12:13 | 46.23533 | -3.59410 | 35090 ft | 459 kts | 233° |
| 2026-04-14 12:13 | 46.19131 | -3.65935 | 35132 ft | 455 kts | 233° |
| 2026-04-14 12:14 | 46.14710 | -3.72471 | 35126 ft | 455 kts | 233° |
| 2026-04-14 12:14 | 46.10287 | -3.78995 | 35125 ft | 455 kts | 232° |
| 2026-04-14 12:15 | 46.05843 | -3.85532 | 35125 ft | 457 kts | 232° |
| 2026-04-14 12:15 | 46.02149 | -3.90956 | 35121 ft | 456 kts | 232° |
| 2026-04-14 12:16 | 45.97698 | -3.97473 | 35110 ft | 456 kts | 232° |
| 2026-04-14 12:16 | 45.93272 | -4.03941 | 35122 ft | 453 kts | 232° |
| 2026-04-14 12:17 | 45.88852 | -4.10384 | 35100 ft | 454 kts | 232° |
| 2026-04-14 12:17 | 45.84410 | -4.16843 | 35124 ft | 456 kts | 232° |
| 2026-04-14 12:18 | 45.79951 | -4.23311 | 35126 ft | 455 kts | 232° |
| 2026-04-14 12:18 | 45.75493 | -4.29762 | 35129 ft | 455 kts | 232° |
| 2026-04-14 12:19 | 45.71031 | -4.36203 | 35130 ft | 455 kts | 232° |
| 2026-04-14 12:19 | 45.66560 | -4.42643 | 35124 ft | 457 kts | 232° |
| 2026-04-14 12:20 | 45.62077 | -4.49082 | 35130 ft | 457 kts | 232° |
| 2026-04-14 12:20 | 45.57613 | -4.55481 | 35135 ft | 457 kts | 232° |
| 2026-04-14 12:21 | 45.53119 | -4.61906 | 35132 ft | 457 kts | 232° |
| 2026-04-14 12:21 | 45.48621 | -4.68321 | 35128 ft | 457 kts | 232° |
| 2026-04-14 12:22 | 45.44134 | -4.74705 | 35135 ft | 455 kts | 232° |
| 2026-04-14 12:22 | 45.39646 | -4.81077 | 35141 ft | 456 kts | 232° |
| 2026-04-14 12:23 | 45.35152 | -4.87442 | 35156 ft | 456 kts | 231° |
| 2026-04-14 12:23 | 45.30659 | -4.93790 | 35126 ft | 455 kts | 231° |
| 2026-04-14 12:24 | 45.26154 | -5.00139 | 35131 ft | 457 kts | 231° |
| 2026-04-14 12:24 | 45.21652 | -5.06469 | 35142 ft | 455 kts | 231° |
| 2026-04-14 12:25 | 45.17189 | -5.12731 | 35147 ft | 454 kts | 231° |
| 2026-04-14 12:25 | 45.12693 | -5.19022 | 35150 ft | 454 kts | 231° |
| 2026-04-14 12:26 | 45.08194 | -5.25305 | 35158 ft | 454 kts | 231° |
| 2026-04-14 12:26 | 45.03683 | -5.31589 | 35156 ft | 456 kts | 231° |
| 2026-04-14 12:27 | 44.99150 | -5.37888 | 35152 ft | 455 kts | 231° |
| 2026-04-14 12:27 | 44.94646 | -5.44134 | 35161 ft | 453 kts | 231° |
| 2026-04-14 12:28 | 44.90144 | -5.50360 | 35175 ft | 453 kts | 231° |
| 2026-04-14 12:28 | 44.85636 | -5.56583 | 35153 ft | 453 kts | 231° |
| 2026-04-14 12:29 | 44.81108 | -5.62820 | 35167 ft | 456 kts | 231° |
| 2026-04-14 12:29 | 44.76571 | -5.69056 | 35160 ft | 455 kts | 231° |
| 2026-04-14 12:30 | 44.72069 | -5.75230 | 35163 ft | 453 kts | 230° |
| 2026-04-14 12:30 | 44.67559 | -5.81401 | 35168 ft | 452 kts | 230° |
| 2026-04-14 12:31 | 44.62759 | -5.87197 | 35179 ft | 457 kts | 225° |
| 2026-04-14 12:31 | 44.57877 | -5.92891 | 35168 ft | 456 kts | 226° |
| 2026-04-14 12:32 | 44.53008 | -5.98605 | 35171 ft | 456 kts | 226° |
| 2026-04-14 12:32 | 44.48135 | -6.04316 | 35170 ft | 456 kts | 226° |
| 2026-04-14 12:33 | 44.43258 | -6.10018 | 35160 ft | 456 kts | 226° |
| 2026-04-14 12:33 | 44.38431 | -6.15650 | 35173 ft | 453 kts | 226° |
| 2026-04-14 12:34 | 44.33586 | -6.21290 | 35182 ft | 453 kts | 226° |
| 2026-04-14 12:34 | 44.28734 | -6.26926 | 35179 ft | 453 kts | 225° |
| 2026-04-14 12:35 | 44.23880 | -6.32551 | 35169 ft | 454 kts | 225° |
| 2026-04-14 12:35 | 44.19019 | -6.38173 | 35184 ft | 454 kts | 225° |
| 2026-04-14 12:36 | 44.14147 | -6.43794 | 35181 ft | 454 kts | 225° |
| 2026-04-14 12:36 | 44.09279 | -6.49398 | 35186 ft | 452 kts | 225° |
| 2026-04-14 12:37 | 44.04453 | -6.54942 | 35182 ft | 450 kts | 225° |
| 2026-04-14 12:37 | 43.99646 | -6.60452 | 35188 ft | 451 kts | 225° |
| 2026-04-14 12:38 | 43.92370 | -6.68769 | 35189 ft | 451 kts | 225° |
| 2026-04-14 12:39 | 43.87522 | -6.74296 | 35186 ft | 451 kts | 225° |
| 2026-04-14 12:39 | 43.82667 | -6.79818 | 35185 ft | 451 kts | 225° |
| 2026-04-14 12:40 | 43.77803 | -6.85339 | 35186 ft | 452 kts | 224° |
| 2026-04-14 12:40 | 43.72956 | -6.90828 | 35189 ft | 449 kts | 224° |
| 2026-04-14 12:41 | 43.68111 | -6.96304 | 35199 ft | 449 kts | 224° |
| 2026-04-14 12:41 | 43.63276 | -7.01757 | 35195 ft | 449 kts | 224° |
| 2026-04-14 12:42 | 43.58462 | -7.07174 | 35202 ft | 450 kts | 224° |
| 2026-04-14 12:42 | 43.53603 | -7.12630 | 35206 ft | 451 kts | 224° |
| 2026-04-14 12:43 | 43.48734 | -7.18086 | 35196 ft | 450 kts | 224° |
| 2026-04-14 12:43 | 43.43873 | -7.23521 | 35220 ft | 450 kts | 224° |
| 2026-04-14 12:44 | 43.39028 | -7.28926 | 35190 ft | 446 kts | 224° |
| 2026-04-14 12:44 | 43.34195 | -7.34307 | 35221 ft | 448 kts | 224° |
| 2026-04-14 12:45 | 43.26926 | -7.42378 | 35221 ft | 447 kts | 224° |
| 2026-04-14 12:45 | 43.22108 | -7.47715 | 35221 ft | 448 kts | 224° |
| 2026-04-14 12:46 | 43.17253 | -7.53080 | 35220 ft | 448 kts | 224° |
| 2026-04-14 12:46 | 43.12389 | -7.58444 | 35234 ft | 449 kts | 224° |
| 2026-04-14 12:47 | 43.07522 | -7.63800 | 35231 ft | 448 kts | 223° |
| 2026-04-14 12:47 | 43.02673 | -7.69126 | 35229 ft | 447 kts | 223° |
| 2026-04-14 12:48 | 42.97815 | -7.74449 | 35229 ft | 447 kts | 223° |
| 2026-04-14 12:48 | 42.92951 | -7.79769 | 35240 ft | 448 kts | 223° |
| 2026-04-14 12:49 | 42.88107 | -7.85055 | 35243 ft | 448 kts | 223° |
| 2026-04-14 12:49 | 42.83226 | -7.90371 | 35231 ft | 448 kts | 223° |
| 2026-04-14 12:50 | 42.75916 | -7.98311 | 35238 ft | 448 kts | 223° |
| 2026-04-14 12:51 | 42.71028 | -8.03608 | 35234 ft | 450 kts | 223° |
| 2026-04-14 12:51 | 42.66125 | -8.08909 | 35242 ft | 450 kts | 223° |
| 2026-04-14 12:52 | 42.61222 | -8.14199 | 35244 ft | 450 kts | 223° |
| 2026-04-14 12:52 | 42.56340 | -8.19455 | 35241 ft | 450 kts | 223° |
| 2026-04-14 12:53 | 42.51432 | -8.24729 | 35240 ft | 450 kts | 223° |
| 2026-04-14 12:53 | 42.46524 | -8.29992 | 35244 ft | 450 kts | 223° |
| 2026-04-14 12:54 | 42.41607 | -8.35254 | 35242 ft | 450 kts | 223° |
| 2026-04-14 12:54 | 42.36720 | -8.40472 | 35255 ft | 446 kts | 223° |
| 2026-04-14 12:55 | 42.31843 | -8.45670 | 35260 ft | 446 kts | 223° |
| 2026-04-14 12:55 | 42.26959 | -8.50864 | 35260 ft | 447 kts | 223° |
| 2026-04-14 12:56 | 42.22066 | -8.56058 | 35258 ft | 447 kts | 223° |
| 2026-04-14 12:56 | 42.17163 | -8.61252 | 35286 ft | 448 kts | 223° |
| 2026-04-14 12:57 | 42.12262 | -8.66434 | 35252 ft | 447 kts | 223° |
| 2026-04-14 12:57 | 42.07361 | -8.71607 | 35256 ft | 448 kts | 222° |
| 2026-04-14 12:58 | 42.02471 | -8.76758 | 35261 ft | 445 kts | 222° |
| 2026-04-14 12:58 | 41.97626 | -8.81852 | 35261 ft | 445 kts | 222° |
| 2026-04-14 12:59 | 41.92746 | -8.86972 | 35265 ft | 445 kts | 222° |
| 2026-04-14 12:59 | 41.87867 | -8.92094 | 35258 ft | 444 kts | 224° |
| 2026-04-14 13:00 | 41.83503 | -8.97856 | 35250 ft | 441 kts | 229° |
| 2026-04-14 13:00 | 41.79175 | -9.03738 | 35265 ft | 443 kts | 229° |
| 2026-04-14 13:01 | 41.74878 | -9.09581 | 35269 ft | 443 kts | 229° |
| 2026-04-14 13:01 | 41.70572 | -9.15425 | 35257 ft | 439 kts | 229° |
| 2026-04-14 13:02 | 41.66277 | -9.21242 | 35261 ft | 440 kts | 229° |
| 2026-04-14 13:02 | 41.61977 | -9.27054 | 35260 ft | 440 kts | 229° |
| 2026-04-14 13:03 | 41.58372 | -9.31919 | 35257 ft | 440 kts | 229° |
| 2026-04-14 13:03 | 41.54089 | -9.37686 | 35261 ft | 440 kts | 229° |
| 2026-04-14 13:04 | 41.49774 | -9.43486 | 35260 ft | 440 kts | 229° |
| 2026-04-14 13:04 | 41.45463 | -9.49269 | 35265 ft | 438 kts | 229° |
| 2026-04-14 13:05 | 41.41173 | -9.55012 | 35257 ft | 437 kts | 229° |
| 2026-04-14 13:05 | 41.36880 | -9.60748 | 35251 ft | 437 kts | 229° |
| 2026-04-14 13:06 | 41.32573 | -9.66491 | 35269 ft | 439 kts | 229° |
| 2026-04-14 13:06 | 41.28289 | -9.72192 | 35265 ft | 438 kts | 229° |
| 2026-04-14 13:07 | 41.23973 | -9.77925 | 35267 ft | 439 kts | 229° |
| 2026-04-14 13:07 | 41.19654 | -9.83652 | 35257 ft | 438 kts | 229° |
| 2026-04-14 13:08 | 41.15031 | -9.88930 | 35280 ft | 438 kts | 224° |
| 2026-04-14 13:08 | 41.10368 | -9.94144 | 35262 ft | 439 kts | 224° |
| 2026-04-14 13:09 | 41.05703 | -9.99385 | 35262 ft | 439 kts | 224° |
| 2026-04-14 13:09 | 41.01038 | -10.04621 | 35264 ft | 439 kts | 224° |
| 2026-04-14 13:10 | 40.96376 | -10.09844 | 35266 ft | 439 kts | 224° |
| 2026-04-14 13:10 | 40.91709 | -10.15063 | 35263 ft | 439 kts | 224° |
| 2026-04-14 13:11 | 40.86864 | -10.20015 | 35279 ft | 444 kts | 218° |
| 2026-04-14 13:11 | 40.81783 | -10.24537 | 35266 ft | 441 kts | 219° |
| 2026-04-14 13:12 | 40.76726 | -10.29119 | 35271 ft | 441 kts | 219° |
| 2026-04-14 13:12 | 40.71671 | -10.33704 | 35271 ft | 441 kts | 219° |
| 2026-04-14 13:13 | 40.66617 | -10.38281 | 35269 ft | 441 kts | 219° |
| 2026-04-14 13:13 | 40.61550 | -10.42860 | 35273 ft | 442 kts | 219° |
| 2026-04-14 13:14 | 40.56473 | -10.47440 | 35270 ft | 442 kts | 219° |
| 2026-04-14 13:14 | 40.51397 | -10.52010 | 35273 ft | 442 kts | 219° |
| 2026-04-14 13:15 | 40.46316 | -10.56577 | 35276 ft | 442 kts | 219° |
| 2026-04-14 13:15 | 40.41283 | -10.61091 | 35260 ft | 439 kts | 219° |
| 2026-04-14 13:16 | 40.36237 | -10.65610 | 35277 ft | 440 kts | 219° |
| 2026-04-14 13:16 | 40.31184 | -10.70126 | 35273 ft | 439 kts | 219° |
| 2026-04-14 13:17 | 40.26126 | -10.74639 | 35274 ft | 439 kts | 219° |
| 2026-04-14 13:17 | 40.21072 | -10.79140 | 35275 ft | 439 kts | 219° |
| 2026-04-14 13:18 | 40.16009 | -10.83640 | 35275 ft | 439 kts | 218° |
| 2026-04-14 13:18 | 40.10949 | -10.88128 | 35276 ft | 439 kts | 218° |
| 2026-04-14 13:19 | 40.05887 | -10.92612 | 35276 ft | 439 kts | 218° |
| 2026-04-14 13:19 | 40.00865 | -10.97051 | 35279 ft | 437 kts | 218° |
| 2026-04-14 13:20 | 39.95842 | -11.01483 | 35277 ft | 436 kts | 218° |
| 2026-04-14 13:20 | 39.90814 | -11.05912 | 35281 ft | 436 kts | 218° |
| 2026-04-14 13:21 | 39.85777 | -11.10341 | 35281 ft | 436 kts | 218° |
| 2026-04-14 13:21 | 39.80738 | -11.14763 | 35284 ft | 436 kts | 218° |
| 2026-04-14 13:22 | 39.75702 | -11.19174 | 35279 ft | 436 kts | 218° |
| 2026-04-14 13:22 | 39.70673 | -11.23573 | 35274 ft | 436 kts | 218° |
| 2026-04-14 13:23 | 39.65612 | -11.27990 | 35288 ft | 439 kts | 218° |
| 2026-04-14 13:23 | 39.60572 | -11.32381 | 35283 ft | 438 kts | 218° |
| 2026-04-14 13:24 | 39.55530 | -11.36767 | 35281 ft | 435 kts | 218° |
| 2026-04-14 13:24 | 39.47989 | -11.43312 | 35284 ft | 435 kts | 218° |
| 2026-04-14 13:25 | 39.42958 | -11.47668 | 35284 ft | 436 kts | 217° |
| 2026-04-14 13:26 | 39.32873 | -11.56379 | 35290 ft | 436 kts | 217° |
| 2026-04-14 13:26 | 39.27830 | -11.60722 | 35290 ft | 436 kts | 217° |
| 2026-04-14 13:27 | 39.22786 | -11.65060 | 35293 ft | 436 kts | 217° |
| 2026-04-14 13:27 | 39.17738 | -11.69393 | 35294 ft | 438 kts | 217° |
| 2026-04-14 13:28 | 39.12653 | -11.73750 | 35289 ft | 438 kts | 217° |
| 2026-04-14 13:28 | 39.07573 | -11.78095 | 35291 ft | 438 kts | 217° |
| 2026-04-14 13:29 | 39.02527 | -11.82403 | 35291 ft | 438 kts | 217° |
| 2026-04-14 13:29 | 38.97447 | -11.86733 | 35291 ft | 438 kts | 217° |
| 2026-04-14 13:30 | 38.92363 | -11.91059 | 35296 ft | 439 kts | 217° |
| 2026-04-14 13:30 | 38.87266 | -11.95389 | 35298 ft | 438 kts | 217° |
| 2026-04-14 13:31 | 38.82179 | -11.99702 | 35296 ft | 438 kts | 217° |
| 2026-04-14 13:31 | 38.77119 | -12.03985 | 35298 ft | 438 kts | 217° |
| 2026-04-14 13:32 | 38.72044 | -12.08272 | 35285 ft | 436 kts | 216° |
| 2026-04-14 13:32 | 38.66973 | -12.12550 | 35302 ft | 437 kts | 216° |
| 2026-04-14 13:33 | 38.61897 | -12.16824 | 35297 ft | 437 kts | 216° |
| 2026-04-14 13:33 | 38.56815 | -12.21096 | 35295 ft | 437 kts | 216° |
| 2026-04-14 13:34 | 38.49196 | -12.27487 | 35298 ft | 437 kts | 216° |
| 2026-04-14 13:35 | 38.44109 | -12.31745 | 35292 ft | 438 kts | 216° |
| 2026-04-14 13:35 | 38.38999 | -12.36015 | 35298 ft | 439 kts | 216° |
| 2026-04-14 13:36 | 38.33918 | -12.40253 | 35305 ft | 439 kts | 216° |
| 2026-04-14 13:36 | 38.28822 | -12.44497 | 35301 ft | 435 kts | 216° |
| 2026-04-14 13:37 | 38.23756 | -12.48708 | 35302 ft | 435 kts | 216° |
| 2026-04-14 13:37 | 38.18676 | -12.52923 | 35307 ft | 437 kts | 216° |
| 2026-04-14 13:38 | 38.13574 | -12.57150 | 35299 ft | 438 kts | 216° |
| 2026-04-14 13:38 | 38.08473 | -12.61370 | 35303 ft | 438 kts | 216° |
| 2026-04-14 13:39 | 38.03372 | -12.65582 | 35311 ft | 438 kts | 216° |
| 2026-04-14 13:39 | 37.98268 | -12.69788 | 35311 ft | 438 kts | 216° |
| 2026-04-14 13:40 | 37.93160 | -12.73992 | 35306 ft | 438 kts | 216° |
| 2026-04-14 13:40 | 37.88048 | -12.78191 | 35310 ft | 438 kts | 215° |
| 2026-04-14 13:41 | 37.82980 | -12.82348 | 35307 ft | 436 kts | 215° |
| 2026-04-14 13:41 | 37.77883 | -12.86522 | 35309 ft | 436 kts | 215° |
| 2026-04-14 13:42 | 37.72783 | -12.90691 | 35309 ft | 436 kts | 215° |
| 2026-04-14 13:42 | 37.67684 | -12.94852 | 35308 ft | 436 kts | 215° |
| 2026-04-14 13:43 | 37.62586 | -12.99005 | 35308 ft | 436 kts | 215° |
| 2026-04-14 13:43 | 37.57479 | -13.03159 | 35309 ft | 436 kts | 215° |
| 2026-04-14 13:44 | 37.52373 | -13.07305 | 35308 ft | 436 kts | 215° |
| 2026-04-14 13:44 | 37.47267 | -13.11444 | 35308 ft | 436 kts | 215° |
| 2026-04-14 13:45 | 37.42192 | -13.15552 | 35315 ft | 436 kts | 215° |
| 2026-04-14 13:45 | 37.37089 | -13.19675 | 35314 ft | 436 kts | 215° |
| 2026-04-14 13:46 | 37.31984 | -13.23793 | 35314 ft | 436 kts | 215° |
| 2026-04-14 13:46 | 37.26882 | -13.27903 | 35314 ft | 436 kts | 215° |
| 2026-04-14 13:47 | 37.21776 | -13.32008 | 35315 ft | 436 kts | 215° |
| 2026-04-14 13:47 | 37.16672 | -13.36105 | 35312 ft | 436 kts | 214° |
| 2026-04-14 13:48 | 37.11551 | -13.40212 | 35319 ft | 436 kts | 214° |
| 2026-04-14 13:48 | 37.06429 | -13.44311 | 35320 ft | 436 kts | 214° |
| 2026-04-14 13:49 | 37.01310 | -13.48402 | 35317 ft | 436 kts | 214° |
| 2026-04-14 13:49 | 36.96191 | -13.52486 | 35319 ft | 435 kts | 214° |
| 2026-04-14 13:50 | 36.91958 | -13.55858 | 35311 ft | 435 kts | 214° |
| 2026-04-14 13:50 | 36.86845 | -13.59927 | 35320 ft | 435 kts | 214° |
| 2026-04-14 13:51 | 36.80906 | -13.64643 | 35321 ft | 435 kts | 214° |
| 2026-04-14 13:51 | 36.76560 | -13.67919 | 35309 ft | 437 kts | 206° |
| 2026-04-14 13:52 | 36.71066 | -13.71160 | 35310 ft | 437 kts | 208° |
| 2026-04-14 13:52 | 36.65644 | -13.74494 | 35312 ft | 437 kts | 208° |
| 2026-04-14 13:53 | 36.60180 | -13.77868 | 35323 ft | 438 kts | 208° |
| 2026-04-14 13:53 | 36.54714 | -13.81239 | 35322 ft | 438 kts | 208° |
| 2026-04-14 13:54 | 36.49255 | -13.84602 | 35317 ft | 438 kts | 208° |
| 2026-04-14 13:54 | 36.43798 | -13.87957 | 35317 ft | 436 kts | 208° |
| 2026-04-14 13:55 | 36.38357 | -13.91298 | 35320 ft | 437 kts | 208° |
| 2026-04-14 13:55 | 36.32898 | -13.94645 | 35323 ft | 438 kts | 208° |
| 2026-04-14 13:56 | 36.27435 | -13.97989 | 35323 ft | 438 kts | 208° |
| 2026-04-14 13:56 | 36.21978 | -14.01323 | 35321 ft | 437 kts | 208° |
| 2026-04-14 13:57 | 36.16511 | -14.04659 | 35321 ft | 437 kts | 208° |
| 2026-04-14 13:57 | 36.11048 | -14.07987 | 35323 ft | 438 kts | 208° |
| 2026-04-14 13:58 | 36.05608 | -14.11296 | 35321 ft | 438 kts | 208° |
| 2026-04-14 13:58 | 36.00129 | -14.14623 | 35322 ft | 438 kts | 208° |
| 2026-04-14 13:59 | 35.94658 | -14.17940 | 35323 ft | 438 kts | 208° |
| 2026-04-14 13:59 | 35.89180 | -14.21257 | 35315 ft | 438 kts | 207° |
| 2026-04-14 14:00 | 35.83702 | -14.24568 | 35326 ft | 438 kts | 207° |
| 2026-04-14 14:00 | 35.78232 | -14.27870 | 35327 ft | 438 kts | 207° |
| 2026-04-14 14:01 | 35.72757 | -14.31169 | 35328 ft | 438 kts | 207° |
| 2026-04-14 14:01 | 35.67282 | -14.34463 | 35325 ft | 438 kts | 207° |
| 2026-04-14 14:02 | 35.61808 | -14.37751 | 35317 ft | 438 kts | 207° |
| 2026-04-14 14:02 | 35.56254 | -14.40862 | 35328 ft | 439 kts | 205° |
| 2026-04-14 14:03 | 35.50698 | -14.43874 | 35325 ft | 439 kts | 205° |
| 2026-04-14 14:03 | 35.45110 | -14.46913 | 35325 ft | 439 kts | 205° |
| 2026-04-14 14:04 | 35.39528 | -14.49946 | 35324 ft | 439 kts | 205° |
| 2026-04-14 14:04 | 35.33946 | -14.52974 | 35322 ft | 439 kts | 205° |
| 2026-04-14 14:05 | 35.28341 | -14.56009 | 35324 ft | 440 kts | 205° |
| 2026-04-14 14:05 | 35.22742 | -14.59037 | 35328 ft | 439 kts | 205° |
| 2026-04-14 14:06 | 35.17192 | -14.62034 | 35328 ft | 439 kts | 205° |
| 2026-04-14 14:06 | 35.11601 | -14.65048 | 35326 ft | 439 kts | 205° |
| 2026-04-14 14:07 | 35.06014 | -14.68056 | 35325 ft | 439 kts | 205° |
| 2026-04-14 14:07 | 35.00426 | -14.71060 | 35325 ft | 439 kts | 205° |
| 2026-04-14 14:08 | 34.94834 | -14.74061 | 35324 ft | 439 kts | 205° |
| 2026-04-14 14:08 | 34.89238 | -14.77060 | 35324 ft | 439 kts | 205° |
| 2026-04-14 14:09 | 34.83650 | -14.80051 | 35320 ft | 439 kts | 205° |
| 2026-04-14 14:09 | 34.78044 | -14.83046 | 35325 ft | 440 kts | 205° |
| 2026-04-14 14:10 | 34.72444 | -14.86034 | 35323 ft | 439 kts | 205° |
| 2026-04-14 14:10 | 34.66842 | -14.89018 | 35322 ft | 439 kts | 205° |
| 2026-04-14 14:11 | 34.61273 | -14.91981 | 35320 ft | 439 kts | 205° |
| 2026-04-14 14:11 | 34.55669 | -14.94957 | 35317 ft | 440 kts | 205° |
| 2026-04-14 14:12 | 34.50062 | -14.97931 | 35321 ft | 440 kts | 205° |
| 2026-04-14 14:12 | 34.44457 | -15.00900 | 35321 ft | 440 kts | 205° |
| 2026-04-14 14:13 | 34.38846 | -15.03867 | 35316 ft | 440 kts | 205° |
| 2026-04-14 14:13 | 34.33239 | -15.06828 | 35314 ft | 439 kts | 205° |
| 2026-04-14 14:14 | 34.27631 | -15.09784 | 35317 ft | 440 kts | 205° |
| 2026-04-14 14:14 | 34.22001 | -15.12749 | 35311 ft | 441 kts | 205° |
| 2026-04-14 14:15 | 34.16412 | -15.15688 | 35310 ft | 441 kts | 205° |
| 2026-04-14 14:15 | 34.10783 | -15.18644 | 35322 ft | 441 kts | 205° |
| 2026-04-14 14:16 | 34.05160 | -15.21592 | 35321 ft | 441 kts | 205° |
| 2026-04-14 14:16 | 33.99528 | -15.24541 | 35319 ft | 441 kts | 205° |
| 2026-04-14 14:17 | 33.91072 | -15.28960 | 35319 ft | 441 kts | 205° |
| 2026-04-14 14:17 | 33.85431 | -15.31903 | 35308 ft | 441 kts | 205° |
| 2026-04-14 14:18 | 33.79785 | -15.34844 | 35318 ft | 441 kts | 205° |
| 2026-04-14 14:18 | 33.74181 | -15.37759 | 35304 ft | 442 kts | 205° |
| 2026-04-14 14:19 | 33.68538 | -15.40691 | 35310 ft | 442 kts | 205° |
| 2026-04-14 14:19 | 33.62894 | -15.43618 | 35311 ft | 442 kts | 205° |
| 2026-04-14 14:20 | 33.57243 | -15.46544 | 35307 ft | 442 kts | 205° |
| 2026-04-14 14:20 | 33.51600 | -15.49463 | 35302 ft | 442 kts | 205° |
| 2026-04-14 14:21 | 33.45948 | -15.52382 | 35309 ft | 442 kts | 204° |
| 2026-04-14 14:21 | 33.40302 | -15.55294 | 35307 ft | 442 kts | 205° |
| 2026-04-14 14:22 | 33.34647 | -15.58206 | 35308 ft | 442 kts | 205° |
| 2026-04-14 14:22 | 33.29004 | -15.61108 | 35300 ft | 441 kts | 204° |
| 2026-04-14 14:23 | 33.23398 | -15.63987 | 35301 ft | 442 kts | 205° |
| 2026-04-14 14:23 | 33.17747 | -15.66886 | 35298 ft | 441 kts | 204° |
| 2026-04-14 14:24 | 33.12101 | -15.69776 | 35303 ft | 441 kts | 204° |
| 2026-04-14 14:24 | 33.06449 | -15.72667 | 35300 ft | 441 kts | 204° |
| 2026-04-14 14:25 | 33.00809 | -15.75547 | 35295 ft | 441 kts | 204° |
| 2026-04-14 14:25 | 32.95157 | -15.78430 | 35296 ft | 441 kts | 204° |
| 2026-04-14 14:26 | 32.89515 | -15.81303 | 35300 ft | 441 kts | 204° |
| 2026-04-14 14:26 | 32.83870 | -15.84173 | 35291 ft | 441 kts | 204° |
| 2026-04-14 14:27 | 32.78224 | -15.87041 | 35295 ft | 441 kts | 204° |
| 2026-04-14 14:27 | 32.72619 | -15.89883 | 35293 ft | 441 kts | 204° |
| 2026-04-14 14:28 | 32.66974 | -15.92742 | 35294 ft | 441 kts | 204° |
| 2026-04-14 14:28 | 32.61333 | -15.95595 | 35286 ft | 440 kts | 204° |
| 2026-04-14 14:29 | 32.55703 | -15.98438 | 35290 ft | 440 kts | 204° |
| 2026-04-14 14:29 | 32.50065 | -16.01282 | 35288 ft | 440 kts | 204° |
| 2026-04-14 14:30 | 32.44425 | -16.04122 | 35288 ft | 440 kts | 204° |
| 2026-04-14 14:30 | 32.38794 | -16.06955 | 35293 ft | 440 kts | 204° |
| 2026-04-14 14:31 | 32.33160 | -16.09785 | 35291 ft | 440 kts | 204° |
| 2026-04-14 14:31 | 32.27562 | -16.12593 | 35285 ft | 440 kts | 204° |
| 2026-04-14 14:32 | 32.21922 | -16.15420 | 35283 ft | 440 kts | 204° |
| 2026-04-14 14:32 | 32.16287 | -16.18240 | 35284 ft | 440 kts | 204° |
| 2026-04-14 14:33 | 32.10652 | -16.21053 | 35285 ft | 440 kts | 204° |
| 2026-04-14 14:33 | 32.05024 | -16.23860 | 35278 ft | 439 kts | 204° |
| 2026-04-14 14:34 | 31.96580 | -16.28065 | 35277 ft | 439 kts | 204° |
| 2026-04-14 14:35 | 31.91898 | -16.30395 | 35279 ft | 439 kts | 204° |
| 2026-04-14 14:35 | 31.86273 | -16.33188 | 35278 ft | 439 kts | 204° |
| 2026-04-14 14:36 | 31.80644 | -16.35980 | 35274 ft | 439 kts | 204° |
| 2026-04-14 14:36 | 31.75026 | -16.38763 | 35271 ft | 438 kts | 204° |
| 2026-04-14 14:37 | 31.69411 | -16.41542 | 35275 ft | 438 kts | 204° |
| 2026-04-14 14:37 | 31.63789 | -16.44319 | 35272 ft | 438 kts | 204° |
| 2026-04-14 14:38 | 31.58206 | -16.47074 | 35270 ft | 438 kts | 204° |
| 2026-04-14 14:38 | 31.52586 | -16.49844 | 35269 ft | 438 kts | 204° |
| 2026-04-14 14:39 | 31.46970 | -16.52608 | 35273 ft | 437 kts | 203° |
| 2026-04-14 14:39 | 31.41348 | -16.55329 | 35260 ft | 438 kts | 198° |
| 2026-04-14 14:40 | 31.35359 | -16.56592 | 35248 ft | 439 kts | 190° |
| 2026-04-14 14:40 | 31.29327 | -16.57704 | 35265 ft | 439 kts | 189° |
| 2026-04-14 14:41 | 31.23292 | -16.58776 | 35262 ft | 439 kts | 189° |
| 2026-04-14 14:41 | 31.17277 | -16.59840 | 35254 ft | 436 kts | 189° |
| 2026-04-14 14:42 | 31.11306 | -16.60895 | 35263 ft | 437 kts | 189° |
| 2026-04-14 14:42 | 31.05298 | -16.61954 | 35253 ft | 437 kts | 189° |
| 2026-04-14 14:43 | 30.99281 | -16.63015 | 35257 ft | 436 kts | 189° |
| 2026-04-14 14:43 | 30.93284 | -16.64070 | 35256 ft | 436 kts | 189° |
| 2026-04-14 14:44 | 30.87290 | -16.65123 | 35248 ft | 435 kts | 189° |
| 2026-04-14 14:44 | 30.81300 | -16.66175 | 35251 ft | 435 kts | 189° |
| 2026-04-14 14:45 | 30.75318 | -16.67223 | 35246 ft | 436 kts | 189° |
| 2026-04-14 14:45 | 30.69324 | -16.68272 | 35244 ft | 435 kts | 189° |
| 2026-04-14 14:46 | 30.63335 | -16.69319 | 35247 ft | 435 kts | 189° |
| 2026-04-14 14:46 | 30.57347 | -16.70364 | 35248 ft | 434 kts | 189° |
| 2026-04-14 14:47 | 30.51407 | -16.71401 | 35242 ft | 434 kts | 188° |
| 2026-04-14 14:47 | 30.45438 | -16.72440 | 35243 ft | 434 kts | 188° |
| 2026-04-14 14:48 | 30.39467 | -16.73479 | 35237 ft | 433 kts | 188° |
| 2026-04-14 14:48 | 30.33504 | -16.74515 | 35240 ft | 433 kts | 188° |
| 2026-04-14 14:49 | 30.27544 | -16.75549 | 35229 ft | 433 kts | 188° |
| 2026-04-14 14:49 | 30.21570 | -16.76585 | 35232 ft | 433 kts | 188° |
| 2026-04-14 14:50 | 30.15649 | -16.77610 | 35237 ft | 433 kts | 188° |
| 2026-04-14 14:50 | 30.09692 | -16.78640 | 35232 ft | 433 kts | 188° |
| 2026-04-14 14:51 | 30.03727 | -16.79670 | 35228 ft | 433 kts | 188° |
| 2026-04-14 14:51 | 29.97769 | -16.80697 | 35226 ft | 433 kts | 188° |
| 2026-04-14 14:52 | 29.91804 | -16.81725 | 35225 ft | 433 kts | 188° |
| 2026-04-14 14:52 | 29.85845 | -16.82750 | 35226 ft | 433 kts | 188° |
| 2026-04-14 14:53 | 29.79886 | -16.83774 | 35219 ft | 432 kts | 188° |
| 2026-04-14 14:53 | 29.73931 | -16.84797 | 35223 ft | 432 kts | 188° |
| 2026-04-14 14:54 | 29.68009 | -16.85812 | 35224 ft | 433 kts | 188° |
| 2026-04-14 14:54 | 29.62056 | -16.86831 | 35218 ft | 432 kts | 188° |
| 2026-04-14 14:55 | 29.56096 | -16.87851 | 35219 ft | 433 kts | 188° |
| 2026-04-14 14:55 | 29.50145 | -16.88867 | 35211 ft | 433 kts | 188° |
| 2026-04-14 14:56 | 29.41210 | -16.90391 | 35210 ft | 432 kts | 188° |
| 2026-04-14 14:56 | 29.35257 | -16.91405 | 35214 ft | 432 kts | 188° |
| 2026-04-14 14:57 | 29.29309 | -16.92417 | 35207 ft | 433 kts | 189° |
| 2026-04-14 14:57 | 29.23356 | -16.93429 | 35206 ft | 431 kts | 189° |
| 2026-04-14 14:58 | 29.17445 | -16.94432 | 35208 ft | 432 kts | 189° |
| 2026-04-14 14:58 | 29.11500 | -16.95439 | 35205 ft | 432 kts | 189° |
| 2026-04-14 14:59 | 29.05553 | -16.96446 | 35203 ft | 432 kts | 189° |
| 2026-04-14 14:59 | 28.99609 | -16.97452 | 35201 ft | 432 kts | 189° |
| 2026-04-14 15:00 | 28.93675 | -16.98454 | 35197 ft | 431 kts | 189° |
| 2026-04-14 15:00 | 28.87729 | -16.99458 | 35201 ft | 431 kts | 189° |
| 2026-04-14 15:01 | 28.81795 | -17.00457 | 35192 ft | 432 kts | 189° |
| 2026-04-14 15:01 | 28.75848 | -17.01459 | 35191 ft | 431 kts | 189° |
| 2026-04-14 15:02 | 28.69911 | -17.02458 | 35189 ft | 431 kts | 189° |
| 2026-04-14 15:02 | 28.63982 | -17.03453 | 35187 ft | 430 kts | 189° |
| 2026-04-14 15:03 | 28.58048 | -17.04448 | 35185 ft | 431 kts | 189° |
| 2026-04-14 15:03 | 28.52159 | -17.05435 | 35183 ft | 430 kts | 189° |
| 2026-04-14 15:04 | 28.46245 | -17.06425 | 35176 ft | 429 kts | 189° |
| 2026-04-14 15:04 | 28.40336 | -17.07413 | 35178 ft | 429 kts | 190° |
| 2026-04-14 15:05 | 28.34435 | -17.08399 | 35171 ft | 428 kts | 190° |
| 2026-04-14 15:05 | 28.28529 | -17.09384 | 35173 ft | 429 kts | 190° |
| 2026-04-14 15:06 | 28.22635 | -17.10366 | 35166 ft | 429 kts | 190° |
| 2026-04-14 15:06 | 28.16733 | -17.11349 | 35164 ft | 428 kts | 190° |
| 2026-04-14 15:07 | 28.10838 | -17.12329 | 35159 ft | 428 kts | 190° |
| 2026-04-14 15:07 | 28.04931 | -17.13310 | 35154 ft | 428 kts | 190° |
| 2026-04-14 15:08 | 27.99044 | -17.14287 | 35157 ft | 428 kts | 190° |
| 2026-04-14 15:08 | 27.93180 | -17.15259 | 35157 ft | 428 kts | 190° |
| 2026-04-14 15:09 | 27.87290 | -17.16234 | 35156 ft | 428 kts | 190° |
| 2026-04-14 15:09 | 27.81396 | -17.17209 | 35155 ft | 427 kts | 190° |
| 2026-04-14 15:10 | 27.75514 | -17.18180 | 35154 ft | 427 kts | 190° |
| 2026-04-14 15:10 | 27.69633 | -17.19150 | 35157 ft | 427 kts | 190° |
| 2026-04-14 15:11 | 27.63753 | -17.20118 | 35154 ft | 427 kts | 190° |
| 2026-04-14 15:11 | 27.57866 | -17.21088 | 35154 ft | 427 kts | 190° |
| 2026-04-14 15:12 | 27.51992 | -17.22053 | 35149 ft | 426 kts | 190° |
| 2026-04-14 15:12 | 27.46132 | -17.23016 | 35152 ft | 426 kts | 190° |
| 2026-04-14 15:13 | 27.40269 | -17.23978 | 35151 ft | 426 kts | 190° |
| 2026-04-14 15:13 | 27.34437 | -17.24934 | 35151 ft | 426 kts | 190° |
| 2026-04-14 15:14 | 27.28568 | -17.25895 | 35151 ft | 426 kts | 190° |
| 2026-04-14 15:14 | 27.22716 | -17.26852 | 35149 ft | 424 kts | 190° |
| 2026-04-14 15:15 | 27.16875 | -17.27806 | 35145 ft | 424 kts | 190° |
| 2026-04-14 15:15 | 27.11032 | -17.28760 | 35145 ft | 424 kts | 190° |
| 2026-04-14 15:16 | 27.05198 | -17.29711 | 35146 ft | 424 kts | 190° |
| 2026-04-14 15:16 | 26.99400 | -17.30655 | 35146 ft | 424 kts | 190° |
| 2026-04-14 15:17 | 26.93572 | -17.31603 | 35142 ft | 422 kts | 190° |
| 2026-04-14 15:17 | 26.87766 | -17.32547 | 35143 ft | 421 kts | 190° |
| 2026-04-14 15:18 | 26.81952 | -17.33491 | 35146 ft | 421 kts | 190° |
| 2026-04-14 15:18 | 26.76149 | -17.34432 | 35146 ft | 421 kts | 190° |
| 2026-04-14 15:19 | 26.70345 | -17.35373 | 35141 ft | 421 kts | 190° |
| 2026-04-14 15:19 | 26.64541 | -17.36312 | 35141 ft | 421 kts | 190° |
| 2026-04-14 15:20 | 26.58775 | -17.37245 | 35140 ft | 421 kts | 190° |
| 2026-04-14 15:20 | 26.52972 | -17.38182 | 35140 ft | 421 kts | 190° |
| 2026-04-14 15:21 | 26.47172 | -17.39118 | 35137 ft | 421 kts | 190° |
| 2026-04-14 15:21 | 26.41368 | -17.40053 | 35156 ft | 421 kts | 190° |
| 2026-04-14 15:22 | 26.35594 | -17.40983 | 35132 ft | 417 kts | 190° |
| 2026-04-14 15:22 | 26.30814 | -17.41752 | 35135 ft | 418 kts | 190° |
| 2026-04-14 15:23 | 26.24123 | -17.42827 | 35132 ft | 418 kts | 190° |
| 2026-04-14 15:23 | 26.18369 | -17.43751 | 35133 ft | 418 kts | 190° |
| 2026-04-14 15:24 | 26.13547 | -17.44525 | 35133 ft | 418 kts | 189° |
| 2026-04-14 15:24 | 26.07793 | -17.45447 | 35127 ft | 417 kts | 190° |
| 2026-04-14 15:25 | 26.02048 | -17.46366 | 35129 ft | 417 kts | 190° |
| 2026-04-14 15:25 | 25.96303 | -17.47286 | 35133 ft | 417 kts | 190° |
| 2026-04-14 15:26 | 25.90560 | -17.48203 | 35130 ft | 417 kts | 190° |
| 2026-04-14 15:26 | 25.84849 | -17.49115 | 35130 ft | 417 kts | 190° |
| 2026-04-14 15:27 | 25.79105 | -17.50031 | 35130 ft | 417 kts | 189° |
| 2026-04-14 15:27 | 25.73357 | -17.50946 | 35129 ft | 417 kts | 190° |
| 2026-04-14 15:28 | 25.67621 | -17.51859 | 35127 ft | 417 kts | 190° |
| 2026-04-14 15:28 | 25.61883 | -17.52772 | 35124 ft | 417 kts | 190° |
| 2026-04-14 15:29 | 25.56137 | -17.53685 | 35127 ft | 416 kts | 190° |
| 2026-04-14 15:29 | 25.50398 | -17.54595 | 35124 ft | 416 kts | 190° |
| 2026-04-14 15:30 | 25.44665 | -17.55504 | 35122 ft | 416 kts | 190° |
| 2026-04-14 15:30 | 25.38964 | -17.56407 | 35124 ft | 416 kts | 190° |
| 2026-04-14 15:31 | 25.33223 | -17.57316 | 35126 ft | 417 kts | 190° |
| 2026-04-14 15:31 | 25.27480 | -17.58224 | 35124 ft | 417 kts | 190° |
| 2026-04-14 15:32 | 25.21737 | -17.59131 | 35122 ft | 417 kts | 190° |
| 2026-04-14 15:32 | 25.15998 | -17.60037 | 35111 ft | 417 kts | 190° |
| 2026-04-14 15:33 | 25.10279 | -17.60938 | 35125 ft | 417 kts | 190° |
| 2026-04-14 15:33 | 25.04530 | -17.61843 | 35124 ft | 417 kts | 190° |
| 2026-04-14 15:34 | 24.98975 | -17.63470 | 34961 ft | 412 kts | 210° |
| 2026-04-14 15:34 | 24.96513 | -17.65095 | 34771 ft | 413 kts | 211° |
| 2026-04-14 15:34 | 24.94054 | -17.66727 | 34560 ft | 412 kts | 211° |
| 2026-04-14 15:35 | 24.91612 | -17.68377 | 34347 ft | 412 kts | 211° |
| 2026-04-14 15:35 | 24.89181 | -17.70038 | 34163 ft | 411 kts | 211° |
| 2026-04-14 15:35 | 24.84329 | -17.73376 | 34122 ft | 412 kts | 212° |
| 2026-04-14 15:36 | 24.79474 | -17.76721 | 34125 ft | 410 kts | 212° |
| 2026-04-14 15:36 | 24.74680 | -17.80021 | 34120 ft | 409 kts | 212° |
| 2026-04-14 15:37 | 24.69848 | -17.83345 | 34120 ft | 409 kts | 212° |
| 2026-04-14 15:37 | 24.65019 | -17.86662 | 34118 ft | 409 kts | 212° |
| 2026-04-14 15:38 | 24.60187 | -17.89980 | 34123 ft | 409 kts | 212° |
| 2026-04-14 15:38 | 24.55359 | -17.93291 | 34121 ft | 409 kts | 212° |
| 2026-04-14 15:39 | 24.50537 | -17.96595 | 34117 ft | 408 kts | 212° |
| 2026-04-14 15:39 | 24.45757 | -17.99867 | 34117 ft | 408 kts | 212° |
| 2026-04-14 15:40 | 24.40945 | -18.03159 | 34111 ft | 408 kts | 212° |
| 2026-04-14 15:40 | 24.36132 | -18.06448 | 34111 ft | 407 kts | 212° |
| 2026-04-14 15:41 | 24.31315 | -18.09737 | 34136 ft | 407 kts | 211° |
| 2026-04-14 15:41 | 24.26531 | -18.13000 | 34111 ft | 404 kts | 211° |
| 2026-04-14 15:42 | 24.21755 | -18.16255 | 34109 ft | 404 kts | 211° |
| 2026-04-14 15:42 | 24.16973 | -18.19511 | 34110 ft | 406 kts | 212° |
| 2026-04-14 15:43 | 24.12168 | -18.22780 | 34099 ft | 406 kts | 211° |
| 2026-04-14 15:43 | 24.07402 | -18.26019 | 34101 ft | 406 kts | 211° |
| 2026-04-14 15:44 | 24.02600 | -18.29280 | 34100 ft | 406 kts | 211° |
| 2026-04-14 15:44 | 23.97796 | -18.32540 | 34089 ft | 406 kts | 211° |
| 2026-04-14 15:45 | 23.92991 | -18.35797 | 34092 ft | 406 kts | 211° |
| 2026-04-14 15:45 | 23.88190 | -18.39049 | 34087 ft | 406 kts | 211° |
| 2026-04-14 15:46 | 23.83375 | -18.42307 | 34087 ft | 408 kts | 212° |
| 2026-04-14 15:46 | 23.78579 | -18.45549 | 34094 ft | 407 kts | 212° |
| 2026-04-14 15:47 | 23.73768 | -18.48799 | 34081 ft | 406 kts | 212° |
| 2026-04-14 15:47 | 23.68957 | -18.52046 | 34080 ft | 406 kts | 212° |
| 2026-04-14 15:48 | 23.64149 | -18.55288 | 34081 ft | 406 kts | 212° |
| 2026-04-14 15:48 | 23.59344 | -18.58525 | 34078 ft | 406 kts | 211° |
| 2026-04-14 15:49 | 23.54537 | -18.61761 | 34075 ft | 406 kts | 211° |
| 2026-04-14 15:49 | 23.49731 | -18.64993 | 34075 ft | 406 kts | 211° |
| 2026-04-14 15:50 | 23.44923 | -18.68224 | 34072 ft | 406 kts | 211° |
| 2026-04-14 15:50 | 23.40145 | -18.71432 | 34072 ft | 406 kts | 211° |
| 2026-04-14 15:51 | 23.35335 | -18.74658 | 34072 ft | 406 kts | 211° |
| 2026-04-14 15:51 | 23.30520 | -18.77885 | 34073 ft | 406 kts | 211° |
| 2026-04-14 15:52 | 23.25716 | -18.81103 | 34070 ft | 406 kts | 211° |
| 2026-04-14 15:52 | 23.20910 | -18.84318 | 34058 ft | 405 kts | 212° |
| 2026-04-14 15:53 | 23.16117 | -18.87522 | 34068 ft | 404 kts | 212° |
| 2026-04-14 15:53 | 23.11323 | -18.90724 | 34070 ft | 404 kts | 212° |
| 2026-04-14 15:54 | 23.04174 | -18.95494 | 34063 ft | 404 kts | 212° |
| 2026-04-14 15:55 | 22.99386 | -18.98685 | 34073 ft | 404 kts | 212° |
| 2026-04-14 15:55 | 22.94589 | -19.01880 | 34064 ft | 404 kts | 212° |
| 2026-04-14 15:56 | 22.89801 | -19.05066 | 34062 ft | 404 kts | 212° |
| 2026-04-14 15:56 | 22.85018 | -19.08246 | 34058 ft | 402 kts | 213° |
| 2026-04-14 15:57 | 22.80253 | -19.11412 | 34064 ft | 401 kts | 213° |
| 2026-04-14 15:57 | 22.75497 | -19.14568 | 34069 ft | 400 kts | 213° |
| 2026-04-14 15:58 | 22.70755 | -19.17712 | 34061 ft | 400 kts | 213° |
| 2026-04-14 15:58 | 22.66001 | -19.20863 | 34057 ft | 400 kts | 213° |
| 2026-04-14 15:59 | 22.61281 | -19.23988 | 34057 ft | 400 kts | 213° |
| 2026-04-14 15:59 | 22.56530 | -19.27131 | 34061 ft | 400 kts | 213° |
| 2026-04-14 16:00 | 22.51785 | -19.30268 | 34053 ft | 398 kts | 214° |
| 2026-04-14 16:00 | 22.47066 | -19.33385 | 34061 ft | 398 kts | 214° |
| 2026-04-14 16:01 | 22.42341 | -19.36503 | 34061 ft | 398 kts | 214° |
| 2026-04-14 16:01 | 22.37620 | -19.39616 | 34057 ft | 398 kts | 214° |
| 2026-04-14 16:02 | 22.32895 | -19.42730 | 34055 ft | 398 kts | 214° |
| 2026-04-14 16:02 | 22.28166 | -19.45844 | 34053 ft | 398 kts | 214° |
| 2026-04-14 16:03 | 22.23469 | -19.48934 | 34052 ft | 397 kts | 214° |
| 2026-04-14 16:03 | 22.18751 | -19.52036 | 34043 ft | 396 kts | 214° |
| 2026-04-14 16:04 | 22.14045 | -19.55128 | 34049 ft | 396 kts | 214° |
| 2026-04-14 16:04 | 22.09339 | -19.58216 | 34051 ft | 396 kts | 214° |
| 2026-04-14 16:05 | 22.04627 | -19.61303 | 34048 ft | 396 kts | 214° |
| 2026-04-14 16:05 | 21.99918 | -19.64387 | 34048 ft | 396 kts | 214° |
| 2026-04-14 16:06 | 21.95240 | -19.67450 | 34047 ft | 396 kts | 214° |
| 2026-04-14 16:06 | 21.90534 | -19.70528 | 34046 ft | 396 kts | 214° |
| 2026-04-14 16:07 | 21.85830 | -19.73603 | 34036 ft | 395 kts | 215° |
| 2026-04-14 16:07 | 21.81117 | -19.76680 | 34042 ft | 396 kts | 215° |
| 2026-04-14 16:08 | 21.76414 | -19.79750 | 34045 ft | 395 kts | 214° |
| 2026-04-14 16:08 | 21.71707 | -19.82819 | 34046 ft | 394 kts | 215° |
| 2026-04-14 16:09 | 21.67012 | -19.85878 | 34045 ft | 394 kts | 215° |
| 2026-04-14 16:09 | 21.62318 | -19.88934 | 34046 ft | 394 kts | 215° |
| 2026-04-14 16:10 | 21.57653 | -19.91969 | 34043 ft | 394 kts | 215° |
| 2026-04-14 16:10 | 21.52955 | -19.95024 | 34026 ft | 394 kts | 215° |
| 2026-04-14 16:11 | 21.48249 | -19.98080 | 34043 ft | 396 kts | 215° |
| 2026-04-14 16:11 | 21.44302 | -20.00642 | 34042 ft | 395 kts | 215° |
| 2026-04-14 16:12 | 21.39592 | -20.03697 | 34042 ft | 395 kts | 215° |
| 2026-04-14 16:12 | 21.34916 | -20.06728 | 34042 ft | 395 kts | 215° |
| 2026-04-14 16:13 | 21.30207 | -20.09778 | 34040 ft | 395 kts | 215° |
| 2026-04-14 16:13 | 21.25494 | -20.12828 | 34040 ft | 395 kts | 215° |
| 2026-04-14 16:14 | 21.20790 | -20.15870 | 34042 ft | 395 kts | 215° |
| 2026-04-14 16:14 | 21.16068 | -20.18922 | 34036 ft | 397 kts | 215° |
| 2026-04-14 16:15 | 21.11334 | -20.21978 | 34036 ft | 397 kts | 215° |
| 2026-04-14 16:15 | 21.06604 | -20.25031 | 34032 ft | 397 kts | 215° |
| 2026-04-14 16:16 | 21.01865 | -20.28086 | 34032 ft | 397 kts | 215° |
| 2026-04-14 16:16 | 20.97128 | -20.31138 | 34031 ft | 397 kts | 215° |
| 2026-04-14 16:17 | 20.92397 | -20.34184 | 34029 ft | 397 kts | 215° |
| 2026-04-14 16:17 | 20.87661 | -20.37230 | 34029 ft | 397 kts | 215° |
| 2026-04-14 16:18 | 20.82949 | -20.40260 | 34028 ft | 399 kts | 215° |
| 2026-04-14 16:18 | 20.78193 | -20.43314 | 34025 ft | 399 kts | 215° |
| 2026-04-14 16:19 | 20.73430 | -20.46372 | 34028 ft | 399 kts | 215° |
| 2026-04-14 16:19 | 20.68677 | -20.49421 | 34028 ft | 399 kts | 215° |
| 2026-04-14 16:20 | 20.63919 | -20.52470 | 34026 ft | 398 kts | 215° |
| 2026-04-14 16:20 | 20.59159 | -20.55519 | 34028 ft | 399 kts | 215° |
| 2026-04-14 16:21 | 20.54400 | -20.58564 | 34025 ft | 398 kts | 215° |
| 2026-04-14 16:21 | 20.49650 | -20.61602 | 34014 ft | 399 kts | 215° |
| 2026-04-14 16:22 | 20.44900 | -20.64638 | 34024 ft | 400 kts | 215° |
| 2026-04-14 16:22 | 20.40132 | -20.67684 | 34023 ft | 400 kts | 215° |
| 2026-04-14 16:23 | 20.35347 | -20.70733 | 34022 ft | 400 kts | 215° |
| 2026-04-14 16:23 | 20.30568 | -20.73773 | 34024 ft | 400 kts | 215° |
| 2026-04-14 16:24 | 20.25788 | -20.76812 | 34022 ft | 400 kts | 215° |
| 2026-04-14 16:24 | 20.21013 | -20.79845 | 34023 ft | 400 kts | 215° |
| 2026-04-14 16:25 | 20.16268 | -20.82857 | 34026 ft | 400 kts | 215° |
| 2026-04-14 16:25 | 20.11486 | -20.85891 | 34022 ft | 400 kts | 215° |
| 2026-04-14 16:26 | 20.06712 | -20.88917 | 34019 ft | 400 kts | 215° |
| 2026-04-14 16:26 | 20.01933 | -20.91944 | 34022 ft | 400 kts | 215° |
| 2026-04-14 16:27 | 19.97156 | -20.94968 | 34016 ft | 400 kts | 215° |
| 2026-04-14 16:27 | 19.92375 | -20.97992 | 34017 ft | 400 kts | 215° |
| 2026-04-14 16:28 | 19.87595 | -21.01014 | 34020 ft | 400 kts | 215° |
| 2026-04-14 16:28 | 19.82814 | -21.04034 | 33994 ft | 400 kts | 215° |
| 2026-04-14 16:29 | 19.78054 | -21.07038 | 34013 ft | 401 kts | 215° |
| 2026-04-14 16:29 | 19.73260 | -21.10062 | 34015 ft | 400 kts | 215° |
| 2026-04-14 16:30 | 19.68471 | -21.13081 | 34014 ft | 400 kts | 215° |
| 2026-04-14 16:30 | 19.63676 | -21.16101 | 34017 ft | 401 kts | 216° |
| 2026-04-14 16:31 | 19.58872 | -21.19124 | 34010 ft | 401 kts | 215° |
| 2026-04-14 16:31 | 19.54071 | -21.22145 | 34009 ft | 401 kts | 215° |
| 2026-04-14 16:32 | 19.49262 | -21.25167 | 33985 ft | 401 kts | 215° |
| 2026-04-14 16:32 | 19.44464 | -21.28181 | 34006 ft | 401 kts | 215° |
| 2026-04-14 16:33 | 19.39661 | -21.31196 | 34006 ft | 401 kts | 215° |
| 2026-04-14 16:33 | 19.34860 | -21.34207 | 34012 ft | 401 kts | 215° |
| 2026-04-14 16:34 | 19.30058 | -21.37217 | 34008 ft | 401 kts | 215° |
| 2026-04-14 16:34 | 19.25285 | -21.40207 | 34004 ft | 401 kts | 215° |
| 2026-04-14 16:35 | 19.20484 | -21.43212 | 34006 ft | 401 kts | 215° |
| 2026-04-14 16:35 | 19.15674 | -21.46221 | 33979 ft | 401 kts | 215° |
| 2026-04-14 16:36 | 19.10872 | -21.49223 | 34000 ft | 401 kts | 216° |
| 2026-04-14 16:36 | 19.06062 | -21.52227 | 34003 ft | 401 kts | 216° |
| 2026-04-14 16:37 | 19.01256 | -21.55227 | 33999 ft | 401 kts | 216° |
| 2026-04-14 16:37 | 18.96449 | -21.58225 | 34000 ft | 401 kts | 216° |
| 2026-04-14 16:38 | 18.91677 | -21.61201 | 34004 ft | 401 kts | 216° |
| 2026-04-14 16:38 | 18.86871 | -21.64195 | 33999 ft | 401 kts | 216° |
| 2026-04-14 16:39 | 18.82059 | -21.67190 | 33995 ft | 401 kts | 216° |
| 2026-04-14 16:39 | 18.77256 | -21.70178 | 33993 ft | 401 kts | 216° |
| 2026-04-14 16:40 | 18.72446 | -21.73169 | 33997 ft | 401 kts | 216° |
| 2026-04-14 16:40 | 18.67638 | -21.76156 | 33998 ft | 401 kts | 216° |
| 2026-04-14 16:41 | 18.62827 | -21.79143 | 33996 ft | 401 kts | 216° |
| 2026-04-14 16:41 | 18.58016 | -21.82129 | 34002 ft | 402 kts | 216° |
| 2026-04-14 16:42 | 18.53195 | -21.85118 | 34003 ft | 402 kts | 216° |
| 2026-04-14 16:42 | 18.48375 | -21.88104 | 33998 ft | 402 kts | 216° |
| 2026-04-14 16:43 | 18.43552 | -21.91091 | 33986 ft | 402 kts | 217° |
| 2026-04-14 16:43 | 18.38732 | -21.94074 | 33990 ft | 402 kts | 217° |
| 2026-04-14 16:44 | 18.33949 | -21.97032 | 33994 ft | 402 kts | 217° |
| 2026-04-14 16:44 | 18.29215 | -21.99957 | 33702 ft | 386 kts | 217° |
| 2026-04-14 16:45 | 18.24647 | -22.02779 | 33218 ft | 377 kts | 217° |
| 2026-04-14 16:45 | 18.22387 | -22.04174 | 32990 ft | 375 kts | 217° |
| 2026-04-14 16:45 | 18.20135 | -22.05564 | 32761 ft | 374 kts | 217° |
| 2026-04-14 16:45 | 18.17895 | -22.06946 | 32532 ft | 372 kts | 217° |
| 2026-04-14 16:46 | 18.15662 | -22.08323 | 32307 ft | 371 kts | 217° |
| 2026-04-14 16:46 | 18.13439 | -22.09694 | 32085 ft | 370 kts | 217° |
| 2026-04-14 16:46 | 18.11223 | -22.11061 | 31838 ft | 369 kts | 217° |
| 2026-04-14 16:46 | 18.09039 | -22.12407 | 31628 ft | 367 kts | 217° |
| 2026-04-14 16:47 | 18.06837 | -22.13763 | 31405 ft | 366 kts | 217° |
| 2026-04-14 16:47 | 18.04638 | -22.15118 | 31187 ft | 365 kts | 217° |
| 2026-04-14 16:47 | 18.02451 | -22.16464 | 30972 ft | 364 kts | 217° |
| 2026-04-14 16:47 | 18.00268 | -22.17809 | 30757 ft | 363 kts | 216° |
| 2026-04-14 16:48 | 17.98101 | -22.19142 | 30550 ft | 362 kts | 216° |
| 2026-04-14 16:48 | 17.95925 | -22.20481 | 30339 ft | 360 kts | 216° |
| 2026-04-14 16:48 | 17.93772 | -22.21805 | 30023 ft | 356 kts | 216° |
| 2026-04-14 16:48 | 17.91637 | -22.23118 | 29459 ft | 356 kts | 216° |
| 2026-04-14 16:49 | 17.89475 | -22.24392 | 28886 ft | 359 kts | 210° |
| 2026-04-14 16:49 | 17.87027 | -22.25094 | 28391 ft | 368 kts | 196° |
| 2026-04-14 16:49 | 17.84534 | -22.25579 | 28073 ft | 361 kts | 198° |
| 2026-04-14 16:49 | 17.82112 | -22.26073 | 27699 ft | 358 kts | 198° |
| 2026-04-14 16:50 | 17.79675 | -22.26555 | 27311 ft | 355 kts | 198° |
| 2026-04-14 16:50 | 17.77256 | -22.27025 | 26894 ft | 352 kts | 197° |
| 2026-04-14 16:50 | 17.74856 | -22.27486 | 26531 ft | 349 kts | 197° |
| 2026-04-14 16:50 | 17.72476 | -22.27942 | 26161 ft | 346 kts | 197° |
| 2026-04-14 16:51 | 17.70113 | -22.28394 | 25793 ft | 344 kts | 197° |
| 2026-04-14 16:51 | 17.67767 | -22.28842 | 25428 ft | 342 kts | 197° |
| 2026-04-14 16:51 | 17.65435 | -22.29287 | 25066 ft | 340 kts | 197° |
| 2026-04-14 16:51 | 17.63115 | -22.29729 | 24710 ft | 338 kts | 197° |
| 2026-04-14 16:52 | 17.60811 | -22.30169 | 24356 ft | 336 kts | 197° |
| 2026-04-14 16:52 | 17.58518 | -22.30606 | 24007 ft | 334 kts | 197° |
| 2026-04-14 16:52 | 17.56239 | -22.31041 | 23648 ft | 332 kts | 197° |
| 2026-04-14 16:52 | 17.53969 | -22.31473 | 23261 ft | 330 kts | 196° |
| 2026-04-14 16:53 | 17.51717 | -22.31902 | 22885 ft | 328 kts | 196° |
| 2026-04-14 16:53 | 17.49483 | -22.32328 | 22536 ft | 325 kts | 196° |
| 2026-04-14 16:53 | 17.47273 | -22.32749 | 22197 ft | 321 kts | 196° |
| 2026-04-14 16:53 | 17.45084 | -22.33166 | 21856 ft | 318 kts | 196° |
| 2026-04-14 16:54 | 17.42948 | -22.33572 | 21543 ft | 314 kts | 195° |
| 2026-04-14 16:54 | 17.40807 | -22.33980 | 21223 ft | 311 kts | 195° |
| 2026-04-14 16:54 | 17.38691 | -22.34382 | 20914 ft | 312 kts | 195° |
| 2026-04-14 16:54 | 17.36523 | -22.34795 | 20581 ft | 317 kts | 195° |
| 2026-04-14 16:55 | 17.34337 | -22.35211 | 20260 ft | 320 kts | 194° |
| 2026-04-14 16:55 | 17.32144 | -22.35627 | 19927 ft | 320 kts | 194° |
| 2026-04-14 16:55 | 17.29959 | -22.36043 | 19602 ft | 319 kts | 194° |
| 2026-04-14 16:55 | 17.27783 | -22.36457 | 19277 ft | 317 kts | 194° |
| 2026-04-14 16:56 | 17.25615 | -22.36868 | 18948 ft | 315 kts | 194° |
| 2026-04-14 16:56 | 17.23464 | -22.37277 | 18628 ft | 313 kts | 193° |
| 2026-04-14 16:56 | 17.21329 | -22.37683 | 18309 ft | 311 kts | 193° |
| 2026-04-14 16:56 | 17.19198 | -22.38088 | 17948 ft | 309 kts | 193° |
| 2026-04-14 16:57 | 17.17090 | -22.38488 | 17605 ft | 307 kts | 193° |
| 2026-04-14 16:57 | 17.14999 | -22.38885 | 17282 ft | 304 kts | 193° |
| 2026-04-14 16:57 | 17.12930 | -22.39278 | 16968 ft | 301 kts | 193° |
| 2026-04-14 16:57 | 17.11573 | -22.39535 | 16759 ft | 299 kts | 193° |
| 2026-04-14 16:58 | 17.08846 | -22.40052 | 16343 ft | 303 kts | 193° |
| 2026-04-14 16:58 | 17.06759 | -22.40449 | 16029 ft | 308 kts | 193° |
| 2026-04-14 16:58 | 17.04647 | -22.40849 | 15717 ft | 310 kts | 193° |
| 2026-04-14 16:58 | 17.03205 | -22.41122 | 15493 ft | 310 kts | 193° |
| 2026-04-14 16:59 | 17.01093 | -22.41522 | 15180 ft | 308 kts | 193° |
| 2026-04-14 16:59 | 16.98995 | -22.41919 | 14859 ft | 306 kts | 193° |
| 2026-04-14 16:59 | 16.96939 | -22.42309 | 14546 ft | 304 kts | 193° |
| 2026-04-14 16:59 | 16.94863 | -22.42703 | 14237 ft | 302 kts | 193° |
| 2026-04-14 17:00 | 16.92802 | -22.43092 | 13923 ft | 300 kts | 194° |
| 2026-04-14 17:00 | 16.90749 | -22.43482 | 13585 ft | 299 kts | 192° |
| 2026-04-14 17:00 | 16.88707 | -22.43867 | 13248 ft | 298 kts | 193° |
| 2026-04-14 17:00 | 16.86671 | -22.44253 | 12925 ft | 296 kts | 193° |
| 2026-04-14 17:01 | 16.84655 | -22.44633 | 12617 ft | 293 kts | 194° |
| 2026-04-14 17:01 | 16.82667 | -22.45009 | 12491 ft | 288 kts | 194° |
| 2026-04-14 17:01 | 16.80668 | -22.45388 | 12446 ft | 297 kts | 194° |
| 2026-04-14 17:01 | 16.78617 | -22.45778 | 12395 ft | 302 kts | 194° |
| 2026-04-14 17:02 | 16.76534 | -22.46171 | 12343 ft | 305 kts | 193° |
| 2026-04-14 17:02 | 16.74438 | -22.46566 | 12299 ft | 306 kts | 193° |
| 2026-04-14 17:02 | 16.72342 | -22.46962 | 12243 ft | 305 kts | 193° |
| 2026-04-14 17:02 | 16.70249 | -22.47356 | 12193 ft | 305 kts | 194° |
| 2026-04-14 17:03 | 16.68162 | -22.47751 | 12141 ft | 305 kts | 192° |
| 2026-04-14 17:03 | 16.66072 | -22.48146 | 12091 ft | 305 kts | 193° |
| 2026-04-14 17:03 | 16.63985 | -22.48540 | 12037 ft | 305 kts | 192° |
| 2026-04-14 17:03 | 16.61930 | -22.48927 | 11988 ft | 301 kts | 192° |
| 2026-04-14 17:04 | 16.59875 | -22.49313 | 11851 ft | 292 kts | 194° |
| 2026-04-14 17:04 | 16.57904 | -22.49687 | 11534 ft | 292 kts | 194° |
| 2026-04-14 17:04 | 16.55883 | -22.50068 | 11202 ft | 291 kts | 194° |
| 2026-04-14 17:04 | 16.53897 | -22.50443 | 10881 ft | 290 kts | 192° |
| 2026-04-14 17:05 | 16.51910 | -22.50816 | 10555 ft | 289 kts | 194° |
| 2026-04-14 17:05 | 16.49955 | -22.51185 | 10256 ft | 288 kts | 194° |
| 2026-04-14 17:05 | 16.47981 | -22.51557 | 9925 ft | 288 kts | 193° |
| 2026-04-14 17:05 | 16.46007 | -22.51930 | 9571 ft | 288 kts | 192° |
| 2026-04-14 17:06 | 16.44027 | -22.52303 | 9188 ft | 289 kts | 193° |
| 2026-04-14 17:06 | 16.42054 | -22.52673 | 8891 ft | 287 kts | 192° |
| 2026-04-14 17:06 | 16.40083 | -22.53044 | 8523 ft | 288 kts | 193° |
| 2026-04-14 17:06 | 16.38111 | -22.53415 | 8206 ft | 288 kts | 193° |
| 2026-04-14 17:07 | 16.36129 | -22.53788 | 7843 ft | 289 kts | 192° |
| 2026-04-14 17:07 | 16.34156 | -22.54161 | 7551 ft | 287 kts | 193° |
| 2026-04-14 17:07 | 16.32192 | -22.54530 | 7247 ft | 287 kts | 192° |
| 2026-04-14 17:07 | 16.30236 | -22.54898 | 6943 ft | 286 kts | 192° |
| 2026-04-14 17:08 | 16.28310 | -22.55362 | 6612 ft | 283 kts | 206° |
| 2026-04-14 17:08 | 16.26680 | -22.56449 | 6327 ft | 277 kts | 220° |
| 2026-04-14 17:08 | 16.25123 | -22.57652 | 5992 ft | 279 kts | 219° |
| 2026-04-14 17:08 | 16.23578 | -22.58855 | 5702 ft | 278 kts | 219° |
| 2026-04-14 17:09 | 16.22045 | -22.60056 | 5453 ft | 274 kts | 219° |
| 2026-04-14 17:09 | 16.20512 | -22.61262 | 5110 ft | 276 kts | 219° |
| 2026-04-14 17:09 | 16.18985 | -22.62465 | 4805 ft | 276 kts | 219° |
| 2026-04-14 17:09 | 16.17480 | -22.63656 | 4572 ft | 273 kts | 218° |
| 2026-04-14 17:10 | 16.15983 | -22.64838 | 4396 ft | 266 kts | 218° |
| 2026-04-14 17:10 | 16.14542 | -22.65974 | 4374 ft | 253 kts | 218° |
| 2026-04-14 17:10 | 16.13179 | -22.67050 | 4377 ft | 239 kts | 218° |
| 2026-04-14 17:10 | 16.11866 | -22.68083 | 4367 ft | 237 kts | 219° |
| 2026-04-14 17:11 | 16.10549 | -22.69123 | 4387 ft | 237 kts | 219° |
| 2026-04-14 17:11 | 16.09243 | -22.70155 | 4382 ft | 235 kts | 219° |
| 2026-04-14 17:11 | 16.07938 | -22.71184 | 4374 ft | 234 kts | 219° |
| 2026-04-14 17:11 | 16.06640 | -22.72206 | 4385 ft | 233 kts | 218° |
| 2026-04-14 17:12 | 16.05344 | -22.73228 | 4373 ft | 234 kts | 218° |
| 2026-04-14 17:12 | 16.04047 | -22.74251 | 4387 ft | 235 kts | 218° |
| 2026-04-14 17:12 | 16.02738 | -22.75282 | 4377 ft | 237 kts | 218° |
| 2026-04-14 17:12 | 16.01483 | -22.76371 | 4357 ft | 233 kts | 232° |
| 2026-04-14 17:13 | 16.00615 | -22.77772 | 4373 ft | 230 kts | 246° |
| 2026-04-14 17:13 | 15.99934 | -22.79263 | 4359 ft | 226 kts | 247° |
| 2026-04-14 17:13 | 15.99249 | -22.80759 | 3968 ft | 232 kts | 246° |
| 2026-04-14 17:13 | 15.98571 | -22.82273 | 3750 ft | 229 kts | 248° |
| 2026-04-14 17:14 | 15.98204 | -22.83822 | 3581 ft | 222 kts | 273° |
| 2026-04-14 17:14 | 15.98502 | -22.85360 | 3490 ft | 207 kts | 294° |
| 2026-04-14 17:14 | 15.98962 | -22.86736 | 3388 ft | 204 kts | 291° |
| 2026-04-14 17:14 | 15.99392 | -22.88151 | 3088 ft | 207 kts | 290° |
| 2026-04-14 17:15 | 15.99663 | -22.89070 | 2817 ft | 213 kts | 290° |
| 2026-04-14 17:16 | 15.99728 | -22.89290 | 2754 ft | 213 kts | 290° |
| 2026-04-14 17:16 | 16.00243 | -22.90718 | 2425 ft | 204 kts | 308° |
| 2026-04-14 17:16 | 16.01227 | -22.91634 | 2219 ft | 181 kts | 337° |
| 2026-04-14 17:16 | 16.02353 | -22.92020 | 2035 ft | 163 kts | 359° |
| 2026-04-14 17:17 | 16.03460 | -22.91996 | 1945 ft | 158 kts | 13° |
| 2026-04-14 17:17 | 16.04500 | -22.91720 | 1780 ft | 147 kts | 18° |
| 2026-04-14 17:17 | 16.05427 | -22.91435 | 1645 ft | 132 kts | 19° |
| 2026-04-14 17:17 | 16.06285 | -22.91168 | 1448 ft | 128 kts | 18° |
| 2026-04-14 17:18 | 16.07130 | -22.90905 | 1240 ft | 127 kts | 18° |
| 2026-04-14 17:18 | 16.07980 | -22.90646 | 1096 ft | 128 kts | 19° |
| 2026-04-14 17:18 | 16.08828 | -22.90393 | 977 ft | 125 kts | 19° |
| 2026-04-14 17:18 | 16.09662 | -22.90121 | 742 ft | 127 kts | 18° |
| 2026-04-14 17:19 | 16.10510 | -22.89864 | 604 ft | 128 kts | 17° |
| 2026-04-14 17:19 | 16.11372 | -22.89609 | 403 ft | 129 kts | 19° |
| 2026-04-14 17:19 | 16.12227 | -22.89334 | 234 ft | 128 kts | 18° |
| 2026-04-14 17:19 | 16.13080 | -22.89068 | 64 ft | 124 kts | 18° |
| 2026-04-14 17:20 | 16.13671 | -22.88879 | 60 ft | 45 kts | 18° |
| 2026-04-14 17:20 | 16.13914 | -22.88804 | 61 ft | 38 kts | 17° |
| 2026-04-14 17:20 | 16.14164 | -22.88727 | 64 ft | 37 kts | 17° |
| 2026-04-14 17:20 | 16.14406 | -22.88652 | 60 ft | 36 kts | 15° |
| 2026-04-14 17:21 | 16.14573 | -22.88641 | 65 ft | 17 kts | 357° |
| 2026-04-14 17:21 | 16.14611 | -22.88586 | 58 ft | 9 kts | 149° |
| 2026-04-14 17:21 | 16.14554 | -22.88600 | 63 ft | 15 kts | 205° |
| 2026-04-14 17:21 | 16.14388 | -22.88653 | 61 ft | 35 kts | 195° |
| 2026-04-14 17:22 | 16.14131 | -22.88734 | 66 ft | 40 kts | 197° |
| 2026-04-14 17:22 | 16.13903 | -22.88806 | 62 ft | 26 kts | 197° |
| 2026-04-14 17:22 | 16.13722 | -22.88863 | 59 ft | 27 kts | 196° |
| 2026-04-14 17:22 | 16.13606 | -22.88916 | 64 ft | 15 kts | 243° |
| 2026-04-14 17:23 | 16.13594 | -22.89004 | 57 ft | 13 kts | 219° |
| 2026-04-14 17:23 | 16.13540 | -22.89026 | 60 ft | 7 kts | 217° |
| 2026-04-14 17:23 | 16.13547 | -22.89079 | 54 ft | 7 kts | 288° |
| 2026-04-14 17:23 | 16.13551 | -22.89090 | 56 ft | 2 kts | 286° |
| 2026-04-14 17:24 | 16.13555 | -22.89104 | 58 ft | 0 kts | 287° |